<?xml version="1.0" encoding="utf-8"?>
<gpx xmlns:xsi="http://www.w3.org/2001/XMLSchema-instance" xmlns:xsd="http://www.w3.org/2001/XMLSchema" version="1.1" creator="Shapelink.com" xmlns="http://www.topografix.com/GPX/1/1" xmlns:gpxtpx="http://www.garmin.com/xmlschemas/TrackPointExtension/v1">
  <metadata>
    <name>Esquí nórdico 25.21 km, 2020-01-04</name>
    <desc></desc>
    <author><name>Per Rooth</name></author> 
    <time>2020-01-04T15:49:58Z</time>
  </metadata>
  <trk>
    <name>Esquí nórdico 25.21 km, 2020-01-04</name>
    <trkseg>
      <trkpt lat="61.30353435267" lon="12.242212459641">
        <ele>442.2</ele>
        <time>2020-01-04T15:49:58Z</time>
      </trkpt>
      <trkpt lat="61.303461597778" lon="12.242283202877">
        <ele>443.6</ele>
        <time>2020-01-04T15:50:02Z</time>
      </trkpt>
      <trkpt lat="61.303350537603" lon="12.242920394915">
        <ele>442.6</ele>
        <time>2020-01-04T15:50:11Z</time>
      </trkpt>
      <trkpt lat="61.303333773803" lon="12.243069257459">
        <ele>442</ele>
        <time>2020-01-04T15:50:12Z</time>
      </trkpt>
      <trkpt lat="61.303301084393" lon="12.243203535497">
        <ele>441.4</ele>
        <time>2020-01-04T15:50:13Z</time>
      </trkpt>
      <trkpt lat="61.303255905952" lon="12.243313673663">
        <ele>440.6</ele>
        <time>2020-01-04T15:50:14Z</time>
      </trkpt>
      <trkpt lat="61.303196729738" lon="12.243382237605">
        <ele>439.6</ele>
        <time>2020-01-04T15:50:15Z</time>
      </trkpt>
      <trkpt lat="61.303135038954" lon="12.243407131848">
        <ele>438.6</ele>
        <time>2020-01-04T15:50:16Z</time>
      </trkpt>
      <trkpt lat="61.303075108369" lon="12.243407131848">
        <ele>438</ele>
        <time>2020-01-04T15:50:17Z</time>
      </trkpt>
      <trkpt lat="61.303018446725" lon="12.243404952554">
        <ele>437.6</ele>
        <time>2020-01-04T15:50:18Z</time>
      </trkpt>
      <trkpt lat="61.302809988872" lon="12.243423811829">
        <ele>438.6</ele>
        <time>2020-01-04T15:50:22Z</time>
      </trkpt>
      <trkpt lat="61.302765145707" lon="12.243440072715">
        <ele>439</ele>
        <time>2020-01-04T15:50:23Z</time>
      </trkpt>
      <trkpt lat="61.302323503396" lon="12.243629755112">
        <ele>439</ele>
        <time>2020-01-04T15:50:35Z</time>
      </trkpt>
      <trkpt lat="61.302177825974" lon="12.243692451724">
        <ele>439</ele>
        <time>2020-01-04T15:50:39Z</time>
      </trkpt>
      <trkpt lat="61.301978001478" lon="12.24370535985">
        <ele>440.2</ele>
        <time>2020-01-04T15:50:46Z</time>
      </trkpt>
      <trkpt lat="61.301756384042" lon="12.243683483091">
        <ele>441.2</ele>
        <time>2020-01-04T15:50:53Z</time>
      </trkpt>
      <trkpt lat="61.30139948274" lon="12.243855479679">
        <ele>441.2</ele>
        <time>2020-01-04T15:51:02Z</time>
      </trkpt>
      <trkpt lat="61.301230671274" lon="12.244036696357">
        <ele>441</ele>
        <time>2020-01-04T15:51:06Z</time>
      </trkpt>
      <trkpt lat="61.301069906432" lon="12.244067290292">
        <ele>440.2</ele>
        <time>2020-01-04T15:51:10Z</time>
      </trkpt>
      <trkpt lat="61.30081777888" lon="12.244068044663">
        <ele>441.4</ele>
        <time>2020-01-04T15:51:18Z</time>
      </trkpt>
      <trkpt lat="61.300691798923" lon="12.244085730472">
        <ele>442.2</ele>
        <time>2020-01-04T15:51:23Z</time>
      </trkpt>
      <trkpt lat="61.30060739319" lon="12.244134094035">
        <ele>442.4</ele>
        <time>2020-01-04T15:51:26Z</time>
      </trkpt>
      <trkpt lat="61.30027714633" lon="12.244503232911">
        <ele>442.2</ele>
        <time>2020-01-04T15:51:40Z</time>
      </trkpt>
      <trkpt lat="61.300264741118" lon="12.2445142132">
        <ele>442</ele>
        <time>2020-01-04T15:51:42Z</time>
      </trkpt>
      <trkpt lat="61.300228782767" lon="12.244542124927">
        <ele>441.6</ele>
        <time>2020-01-04T15:51:48Z</time>
      </trkpt>
      <trkpt lat="61.300207995655" lon="12.244560984202">
        <ele>441.8</ele>
        <time>2020-01-04T15:51:50Z</time>
      </trkpt>
      <trkpt lat="61.299841203711" lon="12.245146459917">
        <ele>443</ele>
        <time>2020-01-04T15:52:04Z</time>
      </trkpt>
      <trkpt lat="61.299762832946" lon="12.245317031582">
        <ele>443.4</ele>
        <time>2020-01-04T15:52:08Z</time>
      </trkpt>
      <trkpt lat="61.299541718424" lon="12.245406801731">
        <ele>444.6</ele>
        <time>2020-01-04T15:52:15Z</time>
      </trkpt>
      <trkpt lat="61.299467370971" lon="12.245425912463">
        <ele>445</ele>
        <time>2020-01-04T15:52:17Z</time>
      </trkpt>
      <trkpt lat="61.299018771683" lon="12.245542001778">
        <ele>444.4</ele>
        <time>2020-01-04T15:52:29Z</time>
      </trkpt>
      <trkpt lat="61.298715933636" lon="12.245637890714">
        <ele>444.6</ele>
        <time>2020-01-04T15:52:36Z</time>
      </trkpt>
      <trkpt lat="61.298260880285" lon="12.245779125729">
        <ele>445.6</ele>
        <time>2020-01-04T15:52:49Z</time>
      </trkpt>
      <trkpt lat="61.298222994097" lon="12.245793123502">
        <ele>445.8</ele>
        <time>2020-01-04T15:52:50Z</time>
      </trkpt>
      <trkpt lat="61.297774562447" lon="12.246014070386">
        <ele>445.2</ele>
        <time>2020-01-04T15:53:01Z</time>
      </trkpt>
      <trkpt lat="61.297428641434" lon="12.246197214901">
        <ele>444.6</ele>
        <time>2020-01-04T15:53:11Z</time>
      </trkpt>
      <trkpt lat="61.297395197653" lon="12.246207692276">
        <ele>444.6</ele>
        <time>2020-01-04T15:53:12Z</time>
      </trkpt>
      <trkpt lat="61.297179028452" lon="12.246282291186">
        <ele>445.8</ele>
        <time>2020-01-04T15:53:19Z</time>
      </trkpt>
      <trkpt lat="61.296956489007" lon="12.246336773536">
        <ele>446.8</ele>
        <time>2020-01-04T15:53:27Z</time>
      </trkpt>
      <trkpt lat="61.296745684222" lon="12.246376922837">
        <ele>448</ele>
        <time>2020-01-04T15:53:34Z</time>
      </trkpt>
      <trkpt lat="61.296283254799" lon="12.24646803409">
        <ele>448.4</ele>
        <time>2020-01-04T15:53:48Z</time>
      </trkpt>
      <trkpt lat="61.296087788891" lon="12.246517738757">
        <ele>449</ele>
        <time>2020-01-04T15:53:54Z</time>
      </trkpt>
      <trkpt lat="61.295621419975" lon="12.246669451147">
        <ele>449.8</ele>
        <time>2020-01-04T15:54:10Z</time>
      </trkpt>
      <trkpt lat="61.295518825519" lon="12.246704236032">
        <ele>450</ele>
        <time>2020-01-04T15:54:14Z</time>
      </trkpt>
      <trkpt lat="61.295200816233" lon="12.246814960931">
        <ele>451.2</ele>
        <time>2020-01-04T15:54:24Z</time>
      </trkpt>
      <trkpt lat="61.294899403109" lon="12.246940521793">
        <ele>450</ele>
        <time>2020-01-04T15:54:32Z</time>
      </trkpt>
      <trkpt lat="61.294446193776" lon="12.246980754913">
        <ele>450</ele>
        <time>2020-01-04T15:54:44Z</time>
      </trkpt>
      <trkpt lat="61.29410639155" lon="12.247104304119">
        <ele>451</ele>
        <time>2020-01-04T15:54:54Z</time>
      </trkpt>
      <trkpt lat="61.293813527964" lon="12.24722659604">
        <ele>452.2</ele>
        <time>2020-01-04T15:55:05Z</time>
      </trkpt>
      <trkpt lat="61.29360263936" lon="12.247310331221">
        <ele>453.2</ele>
        <time>2020-01-04T15:55:13Z</time>
      </trkpt>
      <trkpt lat="61.293365599228" lon="12.247413596229">
        <ele>454.2</ele>
        <time>2020-01-04T15:55:21Z</time>
      </trkpt>
      <trkpt lat="61.293037447843" lon="12.247567404094">
        <ele>455.4</ele>
        <time>2020-01-04T15:55:32Z</time>
      </trkpt>
      <trkpt lat="61.292775010554" lon="12.247643008832">
        <ele>456.4</ele>
        <time>2020-01-04T15:55:41Z</time>
      </trkpt>
      <trkpt lat="61.29232020866" lon="12.247701682132">
        <ele>456.2</ele>
        <time>2020-01-04T15:55:54Z</time>
      </trkpt>
      <trkpt lat="61.292101524889" lon="12.247632950552">
        <ele>456.8</ele>
        <time>2020-01-04T15:56:00Z</time>
      </trkpt>
      <trkpt lat="61.29165300942" lon="12.247622892272">
        <ele>457.6</ele>
        <time>2020-01-04T15:56:15Z</time>
      </trkpt>
      <trkpt lat="61.291214803688" lon="12.247924892129">
        <ele>458.6</ele>
        <time>2020-01-04T15:56:29Z</time>
      </trkpt>
      <trkpt lat="61.29077877725" lon="12.248295623566">
        <ele>458.4</ele>
        <time>2020-01-04T15:56:42Z</time>
      </trkpt>
      <trkpt lat="61.290327328116" lon="12.248656296723">
        <ele>458.8</ele>
        <time>2020-01-04T15:56:55Z</time>
      </trkpt>
      <trkpt lat="61.289901443777" lon="12.248995512216">
        <ele>459</ele>
        <time>2020-01-04T15:57:08Z</time>
      </trkpt>
      <trkpt lat="61.289458292724" lon="12.249341852324">
        <ele>458.4</ele>
        <time>2020-01-04T15:57:21Z</time>
      </trkpt>
      <trkpt lat="61.289007514142" lon="12.249727168267">
        <ele>459</ele>
        <time>2020-01-04T15:57:34Z</time>
      </trkpt>
      <trkpt lat="61.288671986685" lon="12.250054984376">
        <ele>457.4</ele>
        <time>2020-01-04T15:57:43Z</time>
      </trkpt>
      <trkpt lat="61.288555981189" lon="12.25019378864">
        <ele>456.8</ele>
        <time>2020-01-04T15:57:46Z</time>
      </trkpt>
      <trkpt lat="61.288522453589" lon="12.250245002049">
        <ele>456.8</ele>
        <time>2020-01-04T15:57:47Z</time>
      </trkpt>
      <trkpt lat="61.28820804852" lon="12.250675664071">
        <ele>456.2</ele>
        <time>2020-01-04T15:57:56Z</time>
      </trkpt>
      <trkpt lat="61.287849638476" lon="12.251267258573">
        <ele>456</ele>
        <time>2020-01-04T15:58:06Z</time>
      </trkpt>
      <trkpt lat="61.287739835586" lon="12.251455935142">
        <ele>455</ele>
        <time>2020-01-04T15:58:09Z</time>
      </trkpt>
      <trkpt lat="61.287627015212" lon="12.251640588399">
        <ele>453.6</ele>
        <time>2020-01-04T15:58:12Z</time>
      </trkpt>
      <trkpt lat="61.287484187636" lon="12.251844268569">
        <ele>452.6</ele>
        <time>2020-01-04T15:58:16Z</time>
      </trkpt>
      <trkpt lat="61.287082526988" lon="12.252370316613">
        <ele>452.2</ele>
        <time>2020-01-04T15:58:28Z</time>
      </trkpt>
      <trkpt lat="61.286787819384" lon="12.252682710026">
        <ele>451.8</ele>
        <time>2020-01-04T15:58:36Z</time>
      </trkpt>
      <trkpt lat="61.28630870998" lon="12.252804163757">
        <ele>452.8</ele>
        <time>2020-01-04T15:58:50Z</time>
      </trkpt>
      <trkpt lat="61.285851561154" lon="12.253013543619">
        <ele>453</ele>
        <time>2020-01-04T15:59:03Z</time>
      </trkpt>
      <trkpt lat="61.285457025121" lon="12.253257037814">
        <ele>453.8</ele>
        <time>2020-01-04T15:59:14Z</time>
      </trkpt>
      <trkpt lat="61.285017478285" lon="12.253527102632">
        <ele>453.8</ele>
        <time>2020-01-04T15:59:26Z</time>
      </trkpt>
      <trkpt lat="61.284644651373" lon="12.253795993984">
        <ele>454.8</ele>
        <time>2020-01-04T15:59:37Z</time>
      </trkpt>
      <trkpt lat="61.28420401489" lon="12.254078044919">
        <ele>454.8</ele>
        <time>2020-01-04T15:59:49Z</time>
      </trkpt>
      <trkpt lat="61.283999328892" lon="12.254243587444">
        <ele>453.8</ele>
        <time>2020-01-04T15:59:54Z</time>
      </trkpt>
      <trkpt lat="61.283575791485" lon="12.254599985832">
        <ele>453.2</ele>
        <time>2020-01-04T16:00:05Z</time>
      </trkpt>
      <trkpt lat="61.283150577698" lon="12.254924449181">
        <ele>453.6</ele>
        <time>2020-01-04T16:00:18Z</time>
      </trkpt>
      <trkpt lat="61.283048821432" lon="12.254999383367">
        <ele>453.6</ele>
        <time>2020-01-04T16:00:21Z</time>
      </trkpt>
      <trkpt lat="61.282719999495" lon="12.255251594738">
        <ele>454.8</ele>
        <time>2020-01-04T16:00:31Z</time>
      </trkpt>
      <trkpt lat="61.282295037165" lon="12.255568011463">
        <ele>455.6</ele>
        <time>2020-01-04T16:00:45Z</time>
      </trkpt>
      <trkpt lat="61.282066211295" lon="12.255665995874">
        <ele>455.8</ele>
        <time>2020-01-04T16:00:52Z</time>
      </trkpt>
      <trkpt lat="61.281622054414" lon="12.255960452021">
        <ele>455.4</ele>
        <time>2020-01-04T16:01:05Z</time>
      </trkpt>
      <trkpt lat="61.281197511179" lon="12.256474513948">
        <ele>455.8</ele>
        <time>2020-01-04T16:01:17Z</time>
      </trkpt>
      <trkpt lat="61.280842370076" lon="12.257103072629">
        <ele>455.6</ele>
        <time>2020-01-04T16:01:29Z</time>
      </trkpt>
      <trkpt lat="61.280429477682" lon="12.257507080209">
        <ele>455.8</ele>
        <time>2020-01-04T16:01:42Z</time>
      </trkpt>
      <trkpt lat="61.279987164819" lon="12.25779868651">
        <ele>456.8</ele>
        <time>2020-01-04T16:01:57Z</time>
      </trkpt>
      <trkpt lat="61.279958331083" lon="12.257821485278">
        <ele>456.8</ele>
        <time>2020-01-04T16:01:58Z</time>
      </trkpt>
      <trkpt lat="61.279676615424" lon="12.258036061918">
        <ele>458</ele>
        <time>2020-01-04T16:02:08Z</time>
      </trkpt>
      <trkpt lat="61.279251317818" lon="12.258358681249">
        <ele>459</ele>
        <time>2020-01-04T16:02:23Z</time>
      </trkpt>
      <trkpt lat="61.279050068399" lon="12.258530594018">
        <ele>460</ele>
        <time>2020-01-04T16:02:29Z</time>
      </trkpt>
      <trkpt lat="61.27879433663" lon="12.258785319959">
        <ele>458.8</ele>
        <time>2020-01-04T16:02:36Z</time>
      </trkpt>
      <trkpt lat="61.278376247458" lon="12.259171557911">
        <ele>458.2</ele>
        <time>2020-01-04T16:02:47Z</time>
      </trkpt>
      <trkpt lat="61.277927564351" lon="12.259422428178">
        <ele>458.4</ele>
        <time>2020-01-04T16:03:00Z</time>
      </trkpt>
      <trkpt lat="61.277466308394" lon="12.259642033958">
        <ele>459.2</ele>
        <time>2020-01-04T16:03:15Z</time>
      </trkpt>
      <trkpt lat="61.277017206192" lon="12.259774970892">
        <ele>459.6</ele>
        <time>2020-01-04T16:03:29Z</time>
      </trkpt>
      <trkpt lat="61.276859207377" lon="12.259841020264">
        <ele>459.8</ele>
        <time>2020-01-04T16:03:34Z</time>
      </trkpt>
      <trkpt lat="61.276672291007" lon="12.259928359662">
        <ele>461</ele>
        <time>2020-01-04T16:03:40Z</time>
      </trkpt>
      <trkpt lat="61.276221177149" lon="12.260181912137">
        <ele>460.8</ele>
        <time>2020-01-04T16:03:52Z</time>
      </trkpt>
      <trkpt lat="61.275777858458" lon="12.260419119907">
        <ele>460.8</ele>
        <time>2020-01-04T16:04:04Z</time>
      </trkpt>
      <trkpt lat="61.275467979615" lon="12.260597570558">
        <ele>462</ele>
        <time>2020-01-04T16:04:15Z</time>
      </trkpt>
      <trkpt lat="61.275366223349" lon="12.26065104708">
        <ele>463</ele>
        <time>2020-01-04T16:04:19Z</time>
      </trkpt>
      <trkpt lat="61.275106132992" lon="12.260748612396">
        <ele>464</ele>
        <time>2020-01-04T16:04:28Z</time>
      </trkpt>
      <trkpt lat="61.27465870717" lon="12.260915579844">
        <ele>464.2</ele>
        <time>2020-01-04T16:04:42Z</time>
      </trkpt>
      <trkpt lat="61.274198289403" lon="12.2610768476">
        <ele>463.6</ele>
        <time>2020-01-04T16:04:55Z</time>
      </trkpt>
      <trkpt lat="61.273769136123" lon="12.261214813674">
        <ele>465</ele>
        <time>2020-01-04T16:05:09Z</time>
      </trkpt>
      <trkpt lat="61.273533688552" lon="12.261297962122">
        <ele>466.2</ele>
        <time>2020-01-04T16:05:17Z</time>
      </trkpt>
      <trkpt lat="61.273305700872" lon="12.2613953598">
        <ele>467.2</ele>
        <time>2020-01-04T16:05:25Z</time>
      </trkpt>
      <trkpt lat="61.273112078982" lon="12.261448920141">
        <ele>468.4</ele>
        <time>2020-01-04T16:05:33Z</time>
      </trkpt>
      <trkpt lat="61.272944357163" lon="12.261499211541">
        <ele>469.4</ele>
        <time>2020-01-04T16:05:39Z</time>
      </trkpt>
      <trkpt lat="61.272652583224" lon="12.261613373019">
        <ele>470.6</ele>
        <time>2020-01-04T16:05:50Z</time>
      </trkpt>
      <trkpt lat="61.272452171995" lon="12.261726696307">
        <ele>471.6</ele>
        <time>2020-01-04T16:05:58Z</time>
      </trkpt>
      <trkpt lat="61.272199876805" lon="12.261841193061">
        <ele>472.6</ele>
        <time>2020-01-04T16:06:08Z</time>
      </trkpt>
      <trkpt lat="61.271975074247" lon="12.261915372876">
        <ele>473.8</ele>
        <time>2020-01-04T16:06:16Z</time>
      </trkpt>
      <trkpt lat="61.271518763611" lon="12.262060295927">
        <ele>473.8</ele>
        <time>2020-01-04T16:06:31Z</time>
      </trkpt>
      <trkpt lat="61.271040073302" lon="12.262172864844">
        <ele>474.4</ele>
        <time>2020-01-04T16:06:45Z</time>
      </trkpt>
      <trkpt lat="61.270888025636" lon="12.26221343324">
        <ele>475</ele>
        <time>2020-01-04T16:06:50Z</time>
      </trkpt>
      <trkpt lat="61.270654841178" lon="12.262264898106">
        <ele>476</ele>
        <time>2020-01-04T16:06:59Z</time>
      </trkpt>
      <trkpt lat="61.270420650892" lon="12.262315189506">
        <ele>477</ele>
        <time>2020-01-04T16:07:06Z</time>
      </trkpt>
      <trkpt lat="61.269945816257" lon="12.262384172543">
        <ele>476.6</ele>
        <time>2020-01-04T16:07:19Z</time>
      </trkpt>
      <trkpt lat="61.269499228625" lon="12.262576620967">
        <ele>478</ele>
        <time>2020-01-04T16:07:34Z</time>
      </trkpt>
      <trkpt lat="61.269471316898" lon="12.262588439446">
        <ele>478.4</ele>
        <time>2020-01-04T16:07:35Z</time>
      </trkpt>
      <trkpt lat="61.269295632274" lon="12.262668654229">
        <ele>479.4</ele>
        <time>2020-01-04T16:07:41Z</time>
      </trkpt>
      <trkpt lat="61.268897659662" lon="12.262724812959">
        <ele>480.4</ele>
        <time>2020-01-04T16:07:54Z</time>
      </trkpt>
      <trkpt lat="61.268734547888" lon="12.262702517105">
        <ele>481.4</ele>
        <time>2020-01-04T16:08:00Z</time>
      </trkpt>
      <trkpt lat="61.268536315953" lon="12.262654824094">
        <ele>482.6</ele>
        <time>2020-01-04T16:08:08Z</time>
      </trkpt>
      <trkpt lat="61.26829349231" lon="12.262591876025">
        <ele>483.6</ele>
        <time>2020-01-04T16:08:18Z</time>
      </trkpt>
      <trkpt lat="61.26783751695" lon="12.262449299906">
        <ele>484.4</ele>
        <time>2020-01-04T16:08:33Z</time>
      </trkpt>
      <trkpt lat="61.267486650616" lon="12.262338491188">
        <ele>484.8</ele>
        <time>2020-01-04T16:08:43Z</time>
      </trkpt>
      <trkpt lat="61.267030842894" lon="12.262316027696">
        <ele>485</ele>
        <time>2020-01-04T16:08:56Z</time>
      </trkpt>
      <trkpt lat="61.266710905771" lon="12.262429518622">
        <ele>485.8</ele>
        <time>2020-01-04T16:09:08Z</time>
      </trkpt>
      <trkpt lat="61.266580148131" lon="12.262497160555">
        <ele>487</ele>
        <time>2020-01-04T16:09:14Z</time>
      </trkpt>
      <trkpt lat="61.26644528336" lon="12.262579638451">
        <ele>488.4</ele>
        <time>2020-01-04T16:09:21Z</time>
      </trkpt>
      <trkpt lat="61.266392393571" lon="12.262614590974">
        <ele>489.6</ele>
        <time>2020-01-04T16:09:24Z</time>
      </trkpt>
      <trkpt lat="61.266245207407" lon="12.262736128524">
        <ele>490.8</ele>
        <time>2020-01-04T16:09:31Z</time>
      </trkpt>
      <trkpt lat="61.266137248535" lon="12.262849535631">
        <ele>491.8</ele>
        <time>2020-01-04T16:09:36Z</time>
      </trkpt>
      <trkpt lat="61.265995594425" lon="12.263055562733">
        <ele>492.8</ele>
        <time>2020-01-04T16:09:42Z</time>
      </trkpt>
      <trkpt lat="61.265693175473" lon="12.263656712601">
        <ele>493</ele>
        <time>2020-01-04T16:09:53Z</time>
      </trkpt>
      <trkpt lat="61.265585635696" lon="12.263856118002">
        <ele>491.8</ele>
        <time>2020-01-04T16:09:56Z</time>
      </trkpt>
      <trkpt lat="61.265557137236" lon="12.263923676116">
        <ele>491</ele>
        <time>2020-01-04T16:09:57Z</time>
      </trkpt>
      <trkpt lat="61.265492009873" lon="12.264069940271">
        <ele>489.4</ele>
        <time>2020-01-04T16:09:59Z</time>
      </trkpt>
      <trkpt lat="61.26540592776" lon="12.264217796987">
        <ele>488</ele>
        <time>2020-01-04T16:10:01Z</time>
      </trkpt>
      <trkpt lat="61.265170480189" lon="12.264675700184">
        <ele>489.4</ele>
        <time>2020-01-04T16:10:08Z</time>
      </trkpt>
      <trkpt lat="61.265035028685" lon="12.264941154957">
        <ele>490.6</ele>
        <time>2020-01-04T16:10:13Z</time>
      </trkpt>
      <trkpt lat="61.264584333922" lon="12.265241981348">
        <ele>491.6</ele>
        <time>2020-01-04T16:10:26Z</time>
      </trkpt>
      <trkpt lat="61.264142523973" lon="12.265441722025">
        <ele>490.2</ele>
        <time>2020-01-04T16:10:38Z</time>
      </trkpt>
      <trkpt lat="61.263692499762" lon="12.26555529677">
        <ele>491</ele>
        <time>2020-01-04T16:10:52Z</time>
      </trkpt>
      <trkpt lat="61.263390919" lon="12.265505089189">
        <ele>491.8</ele>
        <time>2020-01-04T16:11:02Z</time>
      </trkpt>
      <trkpt lat="61.263161506397" lon="12.265429903546">
        <ele>493</ele>
        <time>2020-01-04T16:11:10Z</time>
      </trkpt>
      <trkpt lat="61.263037873372" lon="12.265380198879">
        <ele>494</ele>
        <time>2020-01-04T16:11:15Z</time>
      </trkpt>
      <trkpt lat="61.262890184294" lon="12.265340301035">
        <ele>495</ele>
        <time>2020-01-04T16:11:21Z</time>
      </trkpt>
      <trkpt lat="61.26272204338" lon="12.265349185849">
        <ele>496.2</ele>
        <time>2020-01-04T16:11:28Z</time>
      </trkpt>
      <trkpt lat="61.262633781973" lon="12.265376175567">
        <ele>497.2</ele>
        <time>2020-01-04T16:11:32Z</time>
      </trkpt>
      <trkpt lat="61.262221979226" lon="12.265638445218">
        <ele>498.2</ele>
        <time>2020-01-04T16:11:46Z</time>
      </trkpt>
      <trkpt lat="61.26176063945" lon="12.265839526999">
        <ele>498.6</ele>
        <time>2020-01-04T16:12:01Z</time>
      </trkpt>
      <trkpt lat="61.26167514407" lon="12.26582435576">
        <ele>499.2</ele>
        <time>2020-01-04T16:12:05Z</time>
      </trkpt>
      <trkpt lat="61.261530891571" lon="12.265682869288">
        <ele>500.4</ele>
        <time>2020-01-04T16:12:12Z</time>
      </trkpt>
      <trkpt lat="61.261452017892" lon="12.265569713638">
        <ele>501.6</ele>
        <time>2020-01-04T16:12:16Z</time>
      </trkpt>
      <trkpt lat="61.261347327961" lon="12.265335104257">
        <ele>502.6</ele>
        <time>2020-01-04T16:12:22Z</time>
      </trkpt>
      <trkpt lat="61.261225706592" lon="12.264835375379">
        <ele>503.8</ele>
        <time>2020-01-04T16:12:33Z</time>
      </trkpt>
      <trkpt lat="61.2612200069" lon="12.264647704638">
        <ele>504.8</ele>
        <time>2020-01-04T16:12:37Z</time>
      </trkpt>
      <trkpt lat="61.261233585578" lon="12.264348554627">
        <ele>505.8</ele>
        <time>2020-01-04T16:12:43Z</time>
      </trkpt>
      <trkpt lat="61.261298126208" lon="12.263781770549">
        <ele>507</ele>
        <time>2020-01-04T16:12:55Z</time>
      </trkpt>
      <trkpt lat="61.26131723694" lon="12.263455127906">
        <ele>508.2</ele>
        <time>2020-01-04T16:13:04Z</time>
      </trkpt>
      <trkpt lat="61.261285134263" lon="12.262888343828">
        <ele>509.2</ele>
        <time>2020-01-04T16:13:16Z</time>
      </trkpt>
      <trkpt lat="61.261262922228" lon="12.262671671713">
        <ele>510.4</ele>
        <time>2020-01-04T16:13:21Z</time>
      </trkpt>
      <trkpt lat="61.261238363261" lon="12.262535549657">
        <ele>511.6</ele>
        <time>2020-01-04T16:13:24Z</time>
      </trkpt>
      <trkpt lat="61.261148928388" lon="12.261932388133">
        <ele>512.6</ele>
        <time>2020-01-04T16:13:38Z</time>
      </trkpt>
      <trkpt lat="61.261132416045" lon="12.261719152597">
        <ele>513.6</ele>
        <time>2020-01-04T16:13:43Z</time>
      </trkpt>
      <trkpt lat="61.261075754401" lon="12.261281617417">
        <ele>514.8</ele>
        <time>2020-01-04T16:13:53Z</time>
      </trkpt>
      <trkpt lat="61.261045244285" lon="12.261021778517">
        <ele>515.8</ele>
        <time>2020-01-04T16:13:59Z</time>
      </trkpt>
      <trkpt lat="61.261018673662" lon="12.260861684227">
        <ele>516.8</ele>
        <time>2020-01-04T16:14:03Z</time>
      </trkpt>
      <trkpt lat="61.260976009791" lon="12.260580387663">
        <ele>517.8</ele>
        <time>2020-01-04T16:14:10Z</time>
      </trkpt>
      <trkpt lat="61.260957318154" lon="12.260374612018">
        <ele>519</ele>
        <time>2020-01-04T16:14:15Z</time>
      </trkpt>
      <trkpt lat="61.260931501902" lon="12.260183169422">
        <ele>520</ele>
        <time>2020-01-04T16:14:20Z</time>
      </trkpt>
      <trkpt lat="61.260896549379" lon="12.259932550612">
        <ele>521.2</ele>
        <time>2020-01-04T16:14:26Z</time>
      </trkpt>
      <trkpt lat="61.260847766721" lon="12.259474647415">
        <ele>522.2</ele>
        <time>2020-01-04T16:14:36Z</time>
      </trkpt>
      <trkpt lat="61.260811892189" lon="12.259122607615">
        <ele>523.2</ele>
        <time>2020-01-04T16:14:44Z</time>
      </trkpt>
      <trkpt lat="61.260797223864" lon="12.258893278831">
        <ele>524.2</ele>
        <time>2020-01-04T16:14:49Z</time>
      </trkpt>
      <trkpt lat="61.260810048171" lon="12.258599828512">
        <ele>525.4</ele>
        <time>2020-01-04T16:14:55Z</time>
      </trkpt>
      <trkpt lat="61.260936782499" lon="12.258022650878">
        <ele>526.4</ele>
        <time>2020-01-04T16:15:08Z</time>
      </trkpt>
      <trkpt lat="61.261008866839" lon="12.2578079066">
        <ele>527.4</ele>
        <time>2020-01-04T16:15:13Z</time>
      </trkpt>
      <trkpt lat="61.261175666649" lon="12.257330892671">
        <ele>528.6</ele>
        <time>2020-01-04T16:15:24Z</time>
      </trkpt>
      <trkpt lat="61.261409270202" lon="12.256519440932">
        <ele>529.2</ele>
        <time>2020-01-04T16:15:41Z</time>
      </trkpt>
      <trkpt lat="61.261486802777" lon="12.256203443302">
        <ele>529.8</ele>
        <time>2020-01-04T16:15:47Z</time>
      </trkpt>
      <trkpt lat="61.261578500763" lon="12.255544458324">
        <ele>530.8</ele>
        <time>2020-01-04T16:15:59Z</time>
      </trkpt>
      <trkpt lat="61.261603562644" lon="12.255165847901">
        <ele>531.8</ele>
        <time>2020-01-04T16:16:06Z</time>
      </trkpt>
      <trkpt lat="61.26162149991" lon="12.254491440227">
        <ele>533</ele>
        <time>2020-01-04T16:16:20Z</time>
      </trkpt>
      <trkpt lat="61.261614626752" lon="12.254318102535">
        <ele>534</ele>
        <time>2020-01-04T16:16:24Z</time>
      </trkpt>
      <trkpt lat="61.261561234049" lon="12.253883752477">
        <ele>535</ele>
        <time>2020-01-04T16:16:33Z</time>
      </trkpt>
      <trkpt lat="61.261461321801" lon="12.253428531488">
        <ele>536</ele>
        <time>2020-01-04T16:16:43Z</time>
      </trkpt>
      <trkpt lat="61.261408515831" lon="12.253119407016">
        <ele>537.2</ele>
        <time>2020-01-04T16:16:50Z</time>
      </trkpt>
      <trkpt lat="61.261336347672" lon="12.252588246013">
        <ele>538.4</ele>
        <time>2020-01-04T16:17:01Z</time>
      </trkpt>
      <trkpt lat="61.261317739854" lon="12.252302171766">
        <ele>539.6</ele>
        <time>2020-01-04T16:17:07Z</time>
      </trkpt>
      <trkpt lat="61.261340454803" lon="12.251944851369">
        <ele>540.8</ele>
        <time>2020-01-04T16:17:14Z</time>
      </trkpt>
      <trkpt lat="61.26147900761" lon="12.251526259283">
        <ele>541.8</ele>
        <time>2020-01-04T16:17:24Z</time>
      </trkpt>
      <trkpt lat="61.261627534878" lon="12.251188384894">
        <ele>542.8</ele>
        <time>2020-01-04T16:17:32Z</time>
      </trkpt>
      <trkpt lat="61.261973874986" lon="12.250547421001">
        <ele>543.2</ele>
        <time>2020-01-04T16:17:48Z</time>
      </trkpt>
      <trkpt lat="61.262014946296" lon="12.250402414131">
        <ele>543.8</ele>
        <time>2020-01-04T16:17:51Z</time>
      </trkpt>
      <trkpt lat="61.262084516066" lon="12.249839653365">
        <ele>545</ele>
        <time>2020-01-04T16:18:03Z</time>
      </trkpt>
      <trkpt lat="61.262101698961" lon="12.249708811906">
        <ele>546.2</ele>
        <time>2020-01-04T16:18:06Z</time>
      </trkpt>
      <trkpt lat="61.262211837127" lon="12.249412260284">
        <ele>547.4</ele>
        <time>2020-01-04T16:18:13Z</time>
      </trkpt>
      <trkpt lat="61.262609977377" lon="12.24889124138">
        <ele>547.8</ele>
        <time>2020-01-04T16:18:29Z</time>
      </trkpt>
      <trkpt lat="61.262719361172" lon="12.248649507384">
        <ele>548.4</ele>
        <time>2020-01-04T16:18:36Z</time>
      </trkpt>
      <trkpt lat="61.262838048876" lon="12.248455801675">
        <ele>549.6</ele>
        <time>2020-01-04T16:18:42Z</time>
      </trkpt>
      <trkpt lat="61.26307827413" lon="12.248075850148">
        <ele>550.6</ele>
        <time>2020-01-04T16:18:52Z</time>
      </trkpt>
      <trkpt lat="61.263170307392" lon="12.24759204688">
        <ele>551.6</ele>
        <time>2020-01-04T16:19:03Z</time>
      </trkpt>
      <trkpt lat="61.263310117484" lon="12.247223075642">
        <ele>552.8</ele>
        <time>2020-01-04T16:19:12Z</time>
      </trkpt>
      <trkpt lat="61.263640280525" lon="12.246967427692">
        <ele>553.8</ele>
        <time>2020-01-04T16:19:24Z</time>
      </trkpt>
      <trkpt lat="61.264077564248" lon="12.246769111938">
        <ele>552.8</ele>
        <time>2020-01-04T16:19:37Z</time>
      </trkpt>
      <trkpt lat="61.264467657874" lon="12.246295115493">
        <ele>554.4</ele>
        <time>2020-01-04T16:19:52Z</time>
      </trkpt>
      <trkpt lat="61.264567151027" lon="12.246216996185">
        <ele>554.8</ele>
        <time>2020-01-04T16:19:55Z</time>
      </trkpt>
      <trkpt lat="61.265033687581" lon="12.246115659014">
        <ele>554.2</ele>
        <time>2020-01-04T16:20:08Z</time>
      </trkpt>
      <trkpt lat="61.265217418829" lon="12.246118592679">
        <ele>553.6</ele>
        <time>2020-01-04T16:20:13Z</time>
      </trkpt>
      <trkpt lat="61.265708095255" lon="12.246041311561">
        <ele>552.8</ele>
        <time>2020-01-04T16:20:25Z</time>
      </trkpt>
      <trkpt lat="61.265834159031" lon="12.246046508339">
        <ele>552.6</ele>
        <time>2020-01-04T16:20:28Z</time>
      </trkpt>
      <trkpt lat="61.26625585242" lon="12.24569438472">
        <ele>552</ele>
        <time>2020-01-04T16:20:41Z</time>
      </trkpt>
      <trkpt lat="61.266577885018" lon="12.245194572023">
        <ele>553.8</ele>
        <time>2020-01-04T16:20:57Z</time>
      </trkpt>
      <trkpt lat="61.266971499042" lon="12.244627871764">
        <ele>554</ele>
        <time>2020-01-04T16:21:12Z</time>
      </trkpt>
      <trkpt lat="61.267383385608" lon="12.244195701">
        <ele>552.8</ele>
        <time>2020-01-04T16:21:25Z</time>
      </trkpt>
      <trkpt lat="61.267636183712" lon="12.243922702517">
        <ele>552.6</ele>
        <time>2020-01-04T16:21:32Z</time>
      </trkpt>
      <trkpt lat="61.267847742868" lon="12.24328542666">
        <ele>553.6</ele>
        <time>2020-01-04T16:21:45Z</time>
      </trkpt>
      <trkpt lat="61.267820920788" lon="12.242925172598">
        <ele>554.8</ele>
        <time>2020-01-04T16:21:54Z</time>
      </trkpt>
      <trkpt lat="61.267795439812" lon="12.24274311773">
        <ele>556</ele>
        <time>2020-01-04T16:21:59Z</time>
      </trkpt>
      <trkpt lat="61.26776878537" lon="12.24244807485">
        <ele>557.2</ele>
        <time>2020-01-04T16:22:07Z</time>
      </trkpt>
      <trkpt lat="61.267754452321" lon="12.242319664142">
        <ele>558.4</ele>
        <time>2020-01-04T16:22:10Z</time>
      </trkpt>
      <trkpt lat="61.267708603328" lon="12.241956308777">
        <ele>559.4</ele>
        <time>2020-01-04T16:22:19Z</time>
      </trkpt>
      <trkpt lat="61.267684211999" lon="12.24178841932">
        <ele>560.6</ele>
        <time>2020-01-04T16:22:23Z</time>
      </trkpt>
      <trkpt lat="61.267652444598" lon="12.241495136639">
        <ele>562</ele>
        <time>2020-01-04T16:22:30Z</time>
      </trkpt>
      <trkpt lat="61.267665771819" lon="12.241143264477">
        <ele>563</ele>
        <time>2020-01-04T16:22:37Z</time>
      </trkpt>
      <trkpt lat="61.267709106242" lon="12.240830451969">
        <ele>564</ele>
        <time>2020-01-04T16:22:45Z</time>
      </trkpt>
      <trkpt lat="61.267750177552" lon="12.240487296983">
        <ele>565.2</ele>
        <time>2020-01-04T16:22:53Z</time>
      </trkpt>
      <trkpt lat="61.267812790345" lon="12.240228966825">
        <ele>566.2</ele>
        <time>2020-01-04T16:22:59Z</time>
      </trkpt>
      <trkpt lat="61.268110263976" lon="12.239769890162">
        <ele>567.4</ele>
        <time>2020-01-04T16:23:11Z</time>
      </trkpt>
      <trkpt lat="61.268493484444" lon="12.239181816058">
        <ele>568</ele>
        <time>2020-01-04T16:23:27Z</time>
      </trkpt>
      <trkpt lat="61.268589038104" lon="12.239115682867">
        <ele>568.6</ele>
        <time>2020-01-04T16:23:30Z</time>
      </trkpt>
      <trkpt lat="61.268988435639" lon="12.238826674955">
        <ele>570</ele>
        <time>2020-01-04T16:23:41Z</time>
      </trkpt>
      <trkpt lat="61.269066890223" lon="12.238733803503">
        <ele>568.8</ele>
        <time>2020-01-04T16:23:43Z</time>
      </trkpt>
      <trkpt lat="61.269137130545" lon="12.238633891255">
        <ele>568.2</ele>
        <time>2020-01-04T16:23:45Z</time>
      </trkpt>
      <trkpt lat="61.269166383376" lon="12.238581923475">
        <ele>567.6</ele>
        <time>2020-01-04T16:23:46Z</time>
      </trkpt>
      <trkpt lat="61.269416415453" lon="12.237781116749">
        <ele>567.8</ele>
        <time>2020-01-04T16:24:01Z</time>
      </trkpt>
      <trkpt lat="61.269465784844" lon="12.237515913433">
        <ele>568.8</ele>
        <time>2020-01-04T16:24:08Z</time>
      </trkpt>
      <trkpt lat="61.269488164517" lon="12.237438716134">
        <ele>570</ele>
        <time>2020-01-04T16:24:10Z</time>
      </trkpt>
      <trkpt lat="61.269547005455" lon="12.237281639328">
        <ele>571</ele>
        <time>2020-01-04T16:24:14Z</time>
      </trkpt>
      <trkpt lat="61.269742219906" lon="12.236692056482">
        <ele>572</ele>
        <time>2020-01-04T16:24:27Z</time>
      </trkpt>
      <trkpt lat="61.269858057764" lon="12.236216048381">
        <ele>573.2</ele>
        <time>2020-01-04T16:24:38Z</time>
      </trkpt>
      <trkpt lat="61.269909857906" lon="12.235943888088">
        <ele>574.2</ele>
        <time>2020-01-04T16:24:44Z</time>
      </trkpt>
      <trkpt lat="61.269946989723" lon="12.235575419764">
        <ele>575.6</ele>
        <time>2020-01-04T16:24:54Z</time>
      </trkpt>
      <trkpt lat="61.269960736039" lon="12.235188175984">
        <ele>576.6</ele>
        <time>2020-01-04T16:25:04Z</time>
      </trkpt>
      <trkpt lat="61.269969117939" lon="12.235052137747">
        <ele>577.6</ele>
        <time>2020-01-04T16:25:07Z</time>
      </trkpt>
      <trkpt lat="61.269981942246" lon="12.234785006594">
        <ele>578.6</ele>
        <time>2020-01-04T16:25:13Z</time>
      </trkpt>
      <trkpt lat="61.27003189837" lon="12.234196010481">
        <ele>579.8</ele>
        <time>2020-01-04T16:25:26Z</time>
      </trkpt>
      <trkpt lat="61.270071712395" lon="12.233857046445">
        <ele>581</ele>
        <time>2020-01-04T16:25:34Z</time>
      </trkpt>
      <trkpt lat="61.270102641606" lon="12.233628388213">
        <ele>582</ele>
        <time>2020-01-04T16:25:39Z</time>
      </trkpt>
      <trkpt lat="61.270124853641" lon="12.233436945617">
        <ele>583.2</ele>
        <time>2020-01-04T16:25:43Z</time>
      </trkpt>
      <trkpt lat="61.270166595503" lon="12.23311650558">
        <ele>584.2</ele>
        <time>2020-01-04T16:25:50Z</time>
      </trkpt>
      <trkpt lat="61.270205236062" lon="12.23272842361">
        <ele>585.4</ele>
        <time>2020-01-04T16:25:58Z</time>
      </trkpt>
      <trkpt lat="61.270267681217" lon="12.232174128563">
        <ele>586.4</ele>
        <time>2020-01-04T16:26:09Z</time>
      </trkpt>
      <trkpt lat="61.270251671788" lon="12.231509862988">
        <ele>587.6</ele>
        <time>2020-01-04T16:26:22Z</time>
      </trkpt>
      <trkpt lat="61.270221664586" lon="12.231101245363">
        <ele>589</ele>
        <time>2020-01-04T16:26:30Z</time>
      </trkpt>
      <trkpt lat="61.270193585221" lon="12.230780889145">
        <ele>590</ele>
        <time>2020-01-04T16:26:36Z</time>
      </trkpt>
      <trkpt lat="61.270164919123" lon="12.230343102508">
        <ele>591.2</ele>
        <time>2020-01-04T16:26:45Z</time>
      </trkpt>
      <trkpt lat="61.270153352101" lon="12.229944207887">
        <ele>592.4</ele>
        <time>2020-01-04T16:26:53Z</time>
      </trkpt>
      <trkpt lat="61.27013751031" lon="12.229676825277">
        <ele>593.6</ele>
        <time>2020-01-04T16:26:58Z</time>
      </trkpt>
      <trkpt lat="61.270139605785" lon="12.229159578228">
        <ele>594.8</ele>
        <time>2020-01-04T16:27:08Z</time>
      </trkpt>
      <trkpt lat="61.270159051793" lon="12.228853303602">
        <ele>595.8</ele>
        <time>2020-01-04T16:27:14Z</time>
      </trkpt>
      <trkpt lat="61.270178162525" lon="12.228537222153">
        <ele>597</ele>
        <time>2020-01-04T16:27:20Z</time>
      </trkpt>
      <trkpt lat="61.270219233835" lon="12.228133885125">
        <ele>598</ele>
        <time>2020-01-04T16:27:28Z</time>
      </trkpt>
      <trkpt lat="61.270545122107" lon="12.227413628458">
        <ele>598.2</ele>
        <time>2020-01-04T16:27:44Z</time>
      </trkpt>
      <trkpt lat="61.271002857666" lon="12.227364510524">
        <ele>596.2</ele>
        <time>2020-01-04T16:27:57Z</time>
      </trkpt>
      <trkpt lat="61.271215171193" lon="12.227516139095">
        <ele>595.2</ele>
        <time>2020-01-04T16:28:02Z</time>
      </trkpt>
      <trkpt lat="61.271453300972" lon="12.227713700478">
        <ele>594</ele>
        <time>2020-01-04T16:28:07Z</time>
      </trkpt>
      <trkpt lat="61.27154483132" lon="12.227781593868">
        <ele>593</ele>
        <time>2020-01-04T16:28:09Z</time>
      </trkpt>
      <trkpt lat="61.271785140393" lon="12.227880667926">
        <ele>593</ele>
        <time>2020-01-04T16:28:14Z</time>
      </trkpt>
      <trkpt lat="61.272057049229" lon="12.227904388703">
        <ele>592</ele>
        <time>2020-01-04T16:28:20Z</time>
      </trkpt>
      <trkpt lat="61.272255029707" lon="12.227855689864">
        <ele>591</ele>
        <time>2020-01-04T16:28:25Z</time>
      </trkpt>
      <trkpt lat="61.272401880595" lon="12.227740690196">
        <ele>589.6</ele>
        <time>2020-01-04T16:28:29Z</time>
      </trkpt>
      <trkpt lat="61.272472540012" lon="12.227667935304">
        <ele>589</ele>
        <time>2020-01-04T16:28:31Z</time>
      </trkpt>
      <trkpt lat="61.272875625583" lon="12.227193268307">
        <ele>588.4</ele>
        <time>2020-01-04T16:28:42Z</time>
      </trkpt>
      <trkpt lat="61.27323713693" lon="12.226584323272">
        <ele>587</ele>
        <time>2020-01-04T16:28:54Z</time>
      </trkpt>
      <trkpt lat="61.273558247519" lon="12.225841603113">
        <ele>586.2</ele>
        <time>2020-01-04T16:29:07Z</time>
      </trkpt>
      <trkpt lat="61.273861923756" lon="12.22570355322">
        <ele>586.8</ele>
        <time>2020-01-04T16:29:15Z</time>
      </trkpt>
      <trkpt lat="61.273949430792" lon="12.225731129671">
        <ele>587</ele>
        <time>2020-01-04T16:29:17Z</time>
      </trkpt>
      <trkpt lat="61.274041212597" lon="12.225800196527">
        <ele>586.4</ele>
        <time>2020-01-04T16:29:19Z</time>
      </trkpt>
      <trkpt lat="61.274085049934" lon="12.225852080488">
        <ele>585.8</ele>
        <time>2020-01-04T16:29:20Z</time>
      </trkpt>
      <trkpt lat="61.274161073767" lon="12.22595165746">
        <ele>584.4</ele>
        <time>2020-01-04T16:29:22Z</time>
      </trkpt>
      <trkpt lat="61.274263249128" lon="12.226116948528">
        <ele>583.4</ele>
        <time>2020-01-04T16:29:25Z</time>
      </trkpt>
      <trkpt lat="61.274296106176" lon="12.226168161937">
        <ele>583</ele>
        <time>2020-01-04T16:29:26Z</time>
      </trkpt>
      <trkpt lat="61.274644290302" lon="12.22666747172">
        <ele>582.4</ele>
        <time>2020-01-04T16:29:35Z</time>
      </trkpt>
      <trkpt lat="61.274724421266" lon="12.226745591028">
        <ele>582</ele>
        <time>2020-01-04T16:29:37Z</time>
      </trkpt>
      <trkpt lat="61.274990378953" lon="12.226812227133">
        <ele>583.2</ele>
        <time>2020-01-04T16:29:46Z</time>
      </trkpt>
      <trkpt lat="61.275438894422" lon="12.227143144545">
        <ele>582</ele>
        <time>2020-01-04T16:30:00Z</time>
      </trkpt>
      <trkpt lat="61.275606616241" lon="12.227320002635">
        <ele>583.2</ele>
        <time>2020-01-04T16:30:05Z</time>
      </trkpt>
      <trkpt lat="61.275843237278" lon="12.227619404103">
        <ele>584.2</ele>
        <time>2020-01-04T16:30:13Z</time>
      </trkpt>
      <trkpt lat="61.276232325076" lon="12.228166071621">
        <ele>584.6</ele>
        <time>2020-01-04T16:30:27Z</time>
      </trkpt>
      <trkpt lat="61.276445392974" lon="12.228504951838">
        <ele>585.4</ele>
        <time>2020-01-04T16:30:35Z</time>
      </trkpt>
      <trkpt lat="61.276594842251" lon="12.228842155675">
        <ele>584.2</ele>
        <time>2020-01-04T16:30:41Z</time>
      </trkpt>
      <trkpt lat="61.276760217138" lon="12.229318163776">
        <ele>583.6</ele>
        <time>2020-01-04T16:30:47Z</time>
      </trkpt>
      <trkpt lat="61.277186101477" lon="12.229505247784">
        <ele>585.4</ele>
        <time>2020-01-04T16:31:04Z</time>
      </trkpt>
      <trkpt lat="61.27734594431" lon="12.22969752857">
        <ele>586.4</ele>
        <time>2020-01-04T16:31:11Z</time>
      </trkpt>
      <trkpt lat="61.27748424566" lon="12.229894251763">
        <ele>587.4</ele>
        <time>2020-01-04T16:31:17Z</time>
      </trkpt>
      <trkpt lat="61.277745844759" lon="12.230257774766">
        <ele>588.6</ele>
        <time>2020-01-04T16:31:30Z</time>
      </trkpt>
      <trkpt lat="61.277876602399" lon="12.230364057258">
        <ele>589.8</ele>
        <time>2020-01-04T16:31:36Z</time>
      </trkpt>
      <trkpt lat="61.278078354732" lon="12.230290464176">
        <ele>590.8</ele>
        <time>2020-01-04T16:31:44Z</time>
      </trkpt>
      <trkpt lat="61.278352023767" lon="12.230086867825">
        <ele>591.8</ele>
        <time>2020-01-04T16:31:54Z</time>
      </trkpt>
      <trkpt lat="61.278596188514" lon="12.229284719995">
        <ele>592</ele>
        <time>2020-01-04T16:32:07Z</time>
      </trkpt>
      <trkpt lat="61.278879748191" lon="12.228495312653">
        <ele>592</ele>
        <time>2020-01-04T16:32:20Z</time>
      </trkpt>
      <trkpt lat="61.279223238453" lon="12.227836327675">
        <ele>592.8</ele>
        <time>2020-01-04T16:32:36Z</time>
      </trkpt>
      <trkpt lat="61.279318624475" lon="12.227691572262">
        <ele>593</ele>
        <time>2020-01-04T16:32:41Z</time>
      </trkpt>
      <trkpt lat="61.279364222011" lon="12.227632312229">
        <ele>594</ele>
        <time>2020-01-04T16:32:43Z</time>
      </trkpt>
      <trkpt lat="61.279781389174" lon="12.227176420688">
        <ele>594.6</ele>
        <time>2020-01-04T16:32:59Z</time>
      </trkpt>
      <trkpt lat="61.280033349088" lon="12.226753386195">
        <ele>592.8</ele>
        <time>2020-01-04T16:33:07Z</time>
      </trkpt>
      <trkpt lat="61.280441799075" lon="12.227048596713">
        <ele>593.6</ele>
        <time>2020-01-04T16:33:20Z</time>
      </trkpt>
      <trkpt lat="61.280458059961" lon="12.227095367715">
        <ele>594</ele>
        <time>2020-01-04T16:33:21Z</time>
      </trkpt>
      <trkpt lat="61.280574819828" lon="12.227422261815">
        <ele>595</ele>
        <time>2020-01-04T16:33:30Z</time>
      </trkpt>
      <trkpt lat="61.280640450105" lon="12.227529885411">
        <ele>596.2</ele>
        <time>2020-01-04T16:33:34Z</time>
      </trkpt>
      <trkpt lat="61.28074061381" lon="12.227682938905">
        <ele>597.4</ele>
        <time>2020-01-04T16:33:41Z</time>
      </trkpt>
      <trkpt lat="61.280780260197" lon="12.227719903084">
        <ele>598.6</ele>
        <time>2020-01-04T16:33:43Z</time>
      </trkpt>
      <trkpt lat="61.281080164579" lon="12.227951914076">
        <ele>599.8</ele>
        <time>2020-01-04T16:33:54Z</time>
      </trkpt>
      <trkpt lat="61.281190973297" lon="12.228067584296">
        <ele>600.8</ele>
        <time>2020-01-04T16:33:59Z</time>
      </trkpt>
      <trkpt lat="61.281381410065" lon="12.228406464513">
        <ele>599.6</ele>
        <time>2020-01-04T16:34:08Z</time>
      </trkpt>
      <trkpt lat="61.281779801772" lon="12.228919101517">
        <ele>600</ele>
        <time>2020-01-04T16:34:23Z</time>
      </trkpt>
      <trkpt lat="61.281984655408" lon="12.228918933879">
        <ele>600.8</ele>
        <time>2020-01-04T16:34:29Z</time>
      </trkpt>
      <trkpt lat="61.282206356663" lon="12.228711565673">
        <ele>601.8</ele>
        <time>2020-01-04T16:34:37Z</time>
      </trkpt>
      <trkpt lat="61.282233011105" lon="12.228681726109">
        <ele>603</ele>
        <time>2020-01-04T16:34:38Z</time>
      </trkpt>
      <trkpt lat="61.282286487627" lon="12.228625064465">
        <ele>601.8</ele>
        <time>2020-01-04T16:34:40Z</time>
      </trkpt>
      <trkpt lat="61.282678425271" lon="12.228146457975">
        <ele>602</ele>
        <time>2020-01-04T16:34:54Z</time>
      </trkpt>
      <trkpt lat="61.283012527805" lon="12.227484287875">
        <ele>602.6</ele>
        <time>2020-01-04T16:35:08Z</time>
      </trkpt>
      <trkpt lat="61.283374877342" lon="12.226934938149">
        <ele>602</ele>
        <time>2020-01-04T16:35:22Z</time>
      </trkpt>
      <trkpt lat="61.283763713683" lon="12.226394305599">
        <ele>602.6</ele>
        <time>2020-01-04T16:35:36Z</time>
      </trkpt>
      <trkpt lat="61.283881060283" lon="12.226156343458">
        <ele>602.8</ele>
        <time>2020-01-04T16:35:41Z</time>
      </trkpt>
      <trkpt lat="61.283923137421" lon="12.226050899156">
        <ele>604</ele>
        <time>2020-01-04T16:35:43Z</time>
      </trkpt>
      <trkpt lat="61.284024055497" lon="12.225800028889">
        <ele>602.8</ele>
        <time>2020-01-04T16:35:48Z</time>
      </trkpt>
      <trkpt lat="61.284257575231" lon="12.225201058315">
        <ele>604</ele>
        <time>2020-01-04T16:36:00Z</time>
      </trkpt>
      <trkpt lat="61.284487155472" lon="12.224388600748">
        <ele>603.2</ele>
        <time>2020-01-04T16:36:14Z</time>
      </trkpt>
      <trkpt lat="61.284567956988" lon="12.223454018898">
        <ele>604</ele>
        <time>2020-01-04T16:36:27Z</time>
      </trkpt>
      <trkpt lat="61.284466955093" lon="12.222526226387">
        <ele>603.6</ele>
        <time>2020-01-04T16:36:39Z</time>
      </trkpt>
      <trkpt lat="61.284358325669" lon="12.221559793317">
        <ele>603.6</ele>
        <time>2020-01-04T16:36:52Z</time>
      </trkpt>
      <trkpt lat="61.284357487479" lon="12.221399782846">
        <ele>602.8</ele>
        <time>2020-01-04T16:36:54Z</time>
      </trkpt>
      <trkpt lat="61.284400905721" lon="12.2204665421">
        <ele>602.6</ele>
        <time>2020-01-04T16:37:06Z</time>
      </trkpt>
      <trkpt lat="61.284714053505" lon="12.219855082495">
        <ele>601.6</ele>
        <time>2020-01-04T16:37:18Z</time>
      </trkpt>
      <trkpt lat="61.285140440758" lon="12.219527350205">
        <ele>602.6</ele>
        <time>2020-01-04T16:37:32Z</time>
      </trkpt>
      <trkpt lat="61.285171956702" lon="12.219508742387">
        <ele>602.8</ele>
        <time>2020-01-04T16:37:33Z</time>
      </trkpt>
      <trkpt lat="61.285638241799" lon="12.219298775792">
        <ele>603.2</ele>
        <time>2020-01-04T16:37:50Z</time>
      </trkpt>
      <trkpt lat="61.285967147555" lon="12.219129712869">
        <ele>603.8</ele>
        <time>2020-01-04T16:38:01Z</time>
      </trkpt>
      <trkpt lat="61.286108801665" lon="12.219077745089">
        <ele>605</ele>
        <time>2020-01-04T16:38:07Z</time>
      </trkpt>
      <trkpt lat="61.286403173993" lon="12.219040110358">
        <ele>606</ele>
        <time>2020-01-04T16:38:21Z</time>
      </trkpt>
      <trkpt lat="61.286419183422" lon="12.219026950775">
        <ele>606.4</ele>
        <time>2020-01-04T16:38:22Z</time>
      </trkpt>
      <trkpt lat="61.286446843692" lon="12.218966852552">
        <ele>607</ele>
        <time>2020-01-04T16:38:24Z</time>
      </trkpt>
      <trkpt lat="61.286454806497" lon="12.218919578636">
        <ele>607.2</ele>
        <time>2020-01-04T16:38:25Z</time>
      </trkpt>
      <trkpt lat="61.286455896144" lon="12.218856211472">
        <ele>607.2</ele>
        <time>2020-01-04T16:38:26Z</time>
      </trkpt>
      <trkpt lat="61.28625422763" lon="12.217990025926">
        <ele>606.6</ele>
        <time>2020-01-04T16:38:37Z</time>
      </trkpt>
      <trkpt lat="61.285999166413" lon="12.217187878096">
        <ele>607.2</ele>
        <time>2020-01-04T16:38:51Z</time>
      </trkpt>
      <trkpt lat="61.285785930877" lon="12.216715138936">
        <ele>608.2</ele>
        <time>2020-01-04T16:39:00Z</time>
      </trkpt>
      <trkpt lat="61.285453253266" lon="12.216044084022">
        <ele>609</ele>
        <time>2020-01-04T16:39:13Z</time>
      </trkpt>
      <trkpt lat="61.285123928415" lon="12.215340423517">
        <ele>609</ele>
        <time>2020-01-04T16:39:26Z</time>
      </trkpt>
      <trkpt lat="61.284752358788" lon="12.214772968887">
        <ele>608.4</ele>
        <time>2020-01-04T16:39:37Z</time>
      </trkpt>
      <trkpt lat="61.284542978926" lon="12.214472561591">
        <ele>607</ele>
        <time>2020-01-04T16:39:42Z</time>
      </trkpt>
      <trkpt lat="61.284456729175" lon="12.21435781338">
        <ele>605.8</ele>
        <time>2020-01-04T16:39:44Z</time>
      </trkpt>
      <trkpt lat="61.284333850521" lon="12.214225798455">
        <ele>605.4</ele>
        <time>2020-01-04T16:39:47Z</time>
      </trkpt>
      <trkpt lat="61.28415707625" lon="12.214125467112">
        <ele>605.8</ele>
        <time>2020-01-04T16:39:51Z</time>
      </trkpt>
      <trkpt lat="61.284041322211" lon="12.214139297247">
        <ele>605.2</ele>
        <time>2020-01-04T16:39:53Z</time>
      </trkpt>
      <trkpt lat="61.283925484353" lon="12.214186403525">
        <ele>604.4</ele>
        <time>2020-01-04T16:39:55Z</time>
      </trkpt>
      <trkpt lat="61.283805539364" lon="12.214267372679">
        <ele>603</ele>
        <time>2020-01-04T16:39:57Z</time>
      </trkpt>
      <trkpt lat="61.283684588547" lon="12.214359657398">
        <ele>601.6</ele>
        <time>2020-01-04T16:39:59Z</time>
      </trkpt>
      <trkpt lat="61.283557686581" lon="12.214471052849">
        <ele>600.4</ele>
        <time>2020-01-04T16:40:01Z</time>
      </trkpt>
      <trkpt lat="61.283425420199" lon="12.214610443846">
        <ele>599.2</ele>
        <time>2020-01-04T16:40:03Z</time>
      </trkpt>
      <trkpt lat="61.283295752206" lon="12.214757210915">
        <ele>598.2</ele>
        <time>2020-01-04T16:40:05Z</time>
      </trkpt>
      <trkpt lat="61.283165329842" lon="12.214921244698">
        <ele>597</ele>
        <time>2020-01-04T16:40:07Z</time>
      </trkpt>
      <trkpt lat="61.283029040148" lon="12.215098270426">
        <ele>595.8</ele>
        <time>2020-01-04T16:40:09Z</time>
      </trkpt>
      <trkpt lat="61.282825695254" lon="12.21538375794">
        <ele>594.6</ele>
        <time>2020-01-04T16:40:12Z</time>
      </trkpt>
      <trkpt lat="61.282551355667" lon="12.215775025032">
        <ele>593.4</ele>
        <time>2020-01-04T16:40:16Z</time>
      </trkpt>
      <trkpt lat="61.282184396085" lon="12.21618506758">
        <ele>592.4</ele>
        <time>2020-01-04T16:40:21Z</time>
      </trkpt>
      <trkpt lat="61.281888598834" lon="12.216510955852">
        <ele>591.2</ele>
        <time>2020-01-04T16:40:25Z</time>
      </trkpt>
      <trkpt lat="61.281671088529" lon="12.216747912165">
        <ele>590.6</ele>
        <time>2020-01-04T16:40:28Z</time>
      </trkpt>
      <trkpt lat="61.281355342356" lon="12.217173042133">
        <ele>590</ele>
        <time>2020-01-04T16:40:33Z</time>
      </trkpt>
      <trkpt lat="61.281097934207" lon="12.217624910362">
        <ele>589</ele>
        <time>2020-01-04T16:40:38Z</time>
      </trkpt>
      <trkpt lat="61.281027023333" lon="12.217865722349">
        <ele>588.8</ele>
        <time>2020-01-04T16:40:40Z</time>
      </trkpt>
      <trkpt lat="61.280987796041" lon="12.218106282879">
        <ele>588.6</ele>
        <time>2020-01-04T16:40:42Z</time>
      </trkpt>
      <trkpt lat="61.280909006181" lon="12.219108925757">
        <ele>588.4</ele>
        <time>2020-01-04T16:40:50Z</time>
      </trkpt>
      <trkpt lat="61.280760395094" lon="12.220075861741">
        <ele>588.2</ele>
        <time>2020-01-04T16:40:59Z</time>
      </trkpt>
      <trkpt lat="61.280710187513" lon="12.220375598485">
        <ele>588.4</ele>
        <time>2020-01-04T16:41:02Z</time>
      </trkpt>
      <trkpt lat="61.280493850674" lon="12.221259302202">
        <ele>588.6</ele>
        <time>2020-01-04T16:41:11Z</time>
      </trkpt>
      <trkpt lat="61.280264354252" lon="12.222076118357">
        <ele>588</ele>
        <time>2020-01-04T16:41:20Z</time>
      </trkpt>
      <trkpt lat="61.280078611348" lon="12.222667209945">
        <ele>587.8</ele>
        <time>2020-01-04T16:41:27Z</time>
      </trkpt>
      <trkpt lat="61.279824555959" lon="12.223455695278">
        <ele>588.2</ele>
        <time>2020-01-04T16:41:36Z</time>
      </trkpt>
      <trkpt lat="61.279591287682" lon="12.224119793215">
        <ele>586.6</ele>
        <time>2020-01-04T16:41:43Z</time>
      </trkpt>
      <trkpt lat="61.279295825707" lon="12.224941303234">
        <ele>586.6</ele>
        <time>2020-01-04T16:41:52Z</time>
      </trkpt>
      <trkpt lat="61.278983599932" lon="12.225682263194">
        <ele>586.2</ele>
        <time>2020-01-04T16:42:01Z</time>
      </trkpt>
      <trkpt lat="61.278657627841" lon="12.226312162979">
        <ele>585.4</ele>
        <time>2020-01-04T16:42:09Z</time>
      </trkpt>
      <trkpt lat="61.278369039024" lon="12.226913731942">
        <ele>584.4</ele>
        <time>2020-01-04T16:42:16Z</time>
      </trkpt>
      <trkpt lat="61.278041222915" lon="12.227600461009">
        <ele>583.8</ele>
        <time>2020-01-04T16:42:24Z</time>
      </trkpt>
      <trkpt lat="61.277825724266" lon="12.228020729475">
        <ele>583.4</ele>
        <time>2020-01-04T16:42:29Z</time>
      </trkpt>
      <trkpt lat="61.277534956155" lon="12.22860201424">
        <ele>582.4</ele>
        <time>2020-01-04T16:42:36Z</time>
      </trkpt>
      <trkpt lat="61.277221976009" lon="12.229301399976">
        <ele>583.6</ele>
        <time>2020-01-04T16:42:45Z</time>
      </trkpt>
      <trkpt lat="61.277152070963" lon="12.229417321653">
        <ele>583.6</ele>
        <time>2020-01-04T16:42:47Z</time>
      </trkpt>
      <trkpt lat="61.277070682714" lon="12.229498206988">
        <ele>583.6</ele>
        <time>2020-01-04T16:42:49Z</time>
      </trkpt>
      <trkpt lat="61.276975548149" lon="12.229544475076">
        <ele>583.2</ele>
        <time>2020-01-04T16:42:51Z</time>
      </trkpt>
      <trkpt lat="61.276921149618" lon="12.229541457592">
        <ele>582.6</ele>
        <time>2020-01-04T16:42:52Z</time>
      </trkpt>
      <trkpt lat="61.276865158526" lon="12.229516228073">
        <ele>582.2</ele>
        <time>2020-01-04T16:42:53Z</time>
      </trkpt>
      <trkpt lat="61.276760384776" lon="12.229382452949">
        <ele>581.2</ele>
        <time>2020-01-04T16:42:55Z</time>
      </trkpt>
      <trkpt lat="61.276685031495" lon="12.229163852997">
        <ele>580</ele>
        <time>2020-01-04T16:42:57Z</time>
      </trkpt>
      <trkpt lat="61.276582856134" lon="12.228817345251">
        <ele>580.2</ele>
        <time>2020-01-04T16:43:01Z</time>
      </trkpt>
      <trkpt lat="61.276530888354" lon="12.228698825185">
        <ele>581</ele>
        <time>2020-01-04T16:43:03Z</time>
      </trkpt>
      <trkpt lat="61.276484201171" lon="12.228596817462">
        <ele>581.2</ele>
        <time>2020-01-04T16:43:05Z</time>
      </trkpt>
      <trkpt lat="61.276427874803" lon="12.228434543878">
        <ele>581</ele>
        <time>2020-01-04T16:44:25Z</time>
      </trkpt>
      <trkpt lat="61.276385462389" lon="12.228368662144">
        <ele>581.4</ele>
        <time>2020-01-04T16:44:29Z</time>
      </trkpt>
      <trkpt lat="61.276122773643" lon="12.227951830257">
        <ele>581</ele>
        <time>2020-01-04T16:44:37Z</time>
      </trkpt>
      <trkpt lat="61.275716670588" lon="12.22741681358">
        <ele>581.4</ele>
        <time>2020-01-04T16:44:47Z</time>
      </trkpt>
      <trkpt lat="61.275591025907" lon="12.22728270318">
        <ele>580.8</ele>
        <time>2020-01-04T16:44:50Z</time>
      </trkpt>
      <trkpt lat="61.275510978762" lon="12.227210786478">
        <ele>580.4</ele>
        <time>2020-01-04T16:44:52Z</time>
      </trkpt>
      <trkpt lat="61.275464543036" lon="12.227179521991">
        <ele>580</ele>
        <time>2020-01-04T16:44:53Z</time>
      </trkpt>
      <trkpt lat="61.275142594257" lon="12.22687534284">
        <ele>580</ele>
        <time>2020-01-04T16:45:01Z</time>
      </trkpt>
      <trkpt lat="61.274746298025" lon="12.226738382594">
        <ele>578.6</ele>
        <time>2020-01-04T16:45:10Z</time>
      </trkpt>
      <trkpt lat="61.2745807555" lon="12.226616006854">
        <ele>577.6</ele>
        <time>2020-01-04T16:45:13Z</time>
      </trkpt>
      <trkpt lat="61.274533733041" lon="12.226553645518">
        <ele>577.4</ele>
        <time>2020-01-04T16:45:14Z</time>
      </trkpt>
      <trkpt lat="61.27424380312" lon="12.226100771461">
        <ele>578.6</ele>
        <time>2020-01-04T16:45:24Z</time>
      </trkpt>
      <trkpt lat="61.273865444154" lon="12.225713024767">
        <ele>579.8</ele>
        <time>2020-01-04T16:45:37Z</time>
      </trkpt>
      <trkpt lat="61.273573502577" lon="12.225880998043">
        <ele>580.8</ele>
        <time>2020-01-04T16:45:46Z</time>
      </trkpt>
      <trkpt lat="61.273262534087" lon="12.226612234999">
        <ele>581.4</ele>
        <time>2020-01-04T16:45:59Z</time>
      </trkpt>
      <trkpt lat="61.272914349961" lon="12.227215731799">
        <ele>581.4</ele>
        <time>2020-01-04T16:46:10Z</time>
      </trkpt>
      <trkpt lat="61.272810665858" lon="12.227349087828">
        <ele>582</ele>
        <time>2020-01-04T16:46:13Z</time>
      </trkpt>
      <trkpt lat="61.272404311346" lon="12.227803889722">
        <ele>583</ele>
        <time>2020-01-04T16:46:25Z</time>
      </trkpt>
      <trkpt lat="61.272230303102" lon="12.22792894767">
        <ele>583</ele>
        <time>2020-01-04T16:46:30Z</time>
      </trkpt>
      <trkpt lat="61.27194297157" lon="12.227889133645">
        <ele>584.2</ele>
        <time>2020-01-04T16:46:38Z</time>
      </trkpt>
      <trkpt lat="61.271643234826" lon="12.227829705974">
        <ele>585.2</ele>
        <time>2020-01-04T16:46:47Z</time>
      </trkpt>
      <trkpt lat="61.27145682137" lon="12.227716466505">
        <ele>586.2</ele>
        <time>2020-01-04T16:46:54Z</time>
      </trkpt>
      <trkpt lat="61.271371828904" lon="12.227653602255">
        <ele>587.2</ele>
        <time>2020-01-04T16:46:57Z</time>
      </trkpt>
      <trkpt lat="61.270985423314" lon="12.227368366198">
        <ele>588.8</ele>
        <time>2020-01-04T16:47:12Z</time>
      </trkpt>
      <trkpt lat="61.270927252928" lon="12.227335425331">
        <ele>589.8</ele>
        <time>2020-01-04T16:47:14Z</time>
      </trkpt>
      <trkpt lat="61.270749053734" lon="12.227274405099">
        <ele>590.8</ele>
        <time>2020-01-04T16:47:21Z</time>
      </trkpt>
      <trkpt lat="61.270675293014" lon="12.227289743976">
        <ele>591.8</ele>
        <time>2020-01-04T16:47:24Z</time>
      </trkpt>
      <trkpt lat="61.270321660653" lon="12.227899946296">
        <ele>592.6</ele>
        <time>2020-01-04T16:47:38Z</time>
      </trkpt>
      <trkpt lat="61.2702137856" lon="12.228314934165">
        <ele>592.4</ele>
        <time>2020-01-04T16:47:43Z</time>
      </trkpt>
      <trkpt lat="61.270192579393" lon="12.228506376761">
        <ele>592.2</ele>
        <time>2020-01-04T16:47:45Z</time>
      </trkpt>
      <trkpt lat="61.270146814219" lon="12.229436348566">
        <ele>592</ele>
        <time>2020-01-04T16:47:54Z</time>
      </trkpt>
      <trkpt lat="61.270159554707" lon="12.2300638176">
        <ele>590.6</ele>
        <time>2020-01-04T16:47:59Z</time>
      </trkpt>
      <trkpt lat="61.270166260227" lon="12.230315442238">
        <ele>588.6</ele>
        <time>2020-01-04T16:48:01Z</time>
      </trkpt>
      <trkpt lat="61.27017103791" lon="12.230440667824">
        <ele>587.4</ele>
        <time>2020-01-04T16:48:02Z</time>
      </trkpt>
      <trkpt lat="61.270176653783" lon="12.230568491799">
        <ele>586.4</ele>
        <time>2020-01-04T16:48:03Z</time>
      </trkpt>
      <trkpt lat="61.270189394271" lon="12.230832354011">
        <ele>585.2</ele>
        <time>2020-01-04T16:48:05Z</time>
      </trkpt>
      <trkpt lat="61.270215629618" lon="12.231250359364">
        <ele>583.6</ele>
        <time>2020-01-04T16:48:08Z</time>
      </trkpt>
      <trkpt lat="61.270241026775" lon="12.231701976136">
        <ele>582.4</ele>
        <time>2020-01-04T16:48:11Z</time>
      </trkpt>
      <trkpt lat="61.270253348168" lon="12.232016213567">
        <ele>581.2</ele>
        <time>2020-01-04T16:48:13Z</time>
      </trkpt>
      <trkpt lat="61.270239266576" lon="12.232332965568">
        <ele>580</ele>
        <time>2020-01-04T16:48:15Z</time>
      </trkpt>
      <trkpt lat="61.270176402326" lon="12.232796987552">
        <ele>578.6</ele>
        <time>2020-01-04T16:48:18Z</time>
      </trkpt>
      <trkpt lat="61.270116220284" lon="12.233267128323">
        <ele>577.6</ele>
        <time>2020-01-04T16:48:21Z</time>
      </trkpt>
      <trkpt lat="61.270079339924" lon="12.233588741826">
        <ele>576.2</ele>
        <time>2020-01-04T16:48:23Z</time>
      </trkpt>
      <trkpt lat="61.270041453736" lon="12.234088722161">
        <ele>575</ele>
        <time>2020-01-04T16:48:26Z</time>
      </trkpt>
      <trkpt lat="61.270003232272" lon="12.234606304486">
        <ele>573.4</ele>
        <time>2020-01-04T16:48:29Z</time>
      </trkpt>
      <trkpt lat="61.269977080744" lon="12.234949543291">
        <ele>572</ele>
        <time>2020-01-04T16:48:31Z</time>
      </trkpt>
      <trkpt lat="61.26995562308" lon="12.235285992757">
        <ele>570.6</ele>
        <time>2020-01-04T16:48:33Z</time>
      </trkpt>
      <trkpt lat="61.269932824312" lon="12.235610204649">
        <ele>569.6</ele>
        <time>2020-01-04T16:48:35Z</time>
      </trkpt>
      <trkpt lat="61.26988186236" lon="12.236159386737">
        <ele>568.4</ele>
        <time>2020-01-04T16:48:38Z</time>
      </trkpt>
      <trkpt lat="61.269808269278" lon="12.236513186736">
        <ele>567.2</ele>
        <time>2020-01-04T16:48:40Z</time>
      </trkpt>
      <trkpt lat="61.269661250752" lon="12.237001767687">
        <ele>566</ele>
        <time>2020-01-04T16:48:43Z</time>
      </trkpt>
      <trkpt lat="61.269550190577" lon="12.237315502204">
        <ele>565</ele>
        <time>2020-01-04T16:48:45Z</time>
      </trkpt>
      <trkpt lat="61.269451116519" lon="12.237627225065">
        <ele>563.8</ele>
        <time>2020-01-04T16:48:47Z</time>
      </trkpt>
      <trkpt lat="61.269378529265" lon="12.237987143851">
        <ele>562.8</ele>
        <time>2020-01-04T16:48:49Z</time>
      </trkpt>
      <trkpt lat="61.269337122679" lon="12.238164001941">
        <ele>562.4</ele>
        <time>2020-01-04T16:48:50Z</time>
      </trkpt>
      <trkpt lat="61.26918365009" lon="12.238603213501">
        <ele>562</ele>
        <time>2020-01-04T16:48:53Z</time>
      </trkpt>
      <trkpt lat="61.269125144428" lon="12.238718632264">
        <ele>561.2</ele>
        <time>2020-01-04T16:48:54Z</time>
      </trkpt>
      <trkpt lat="61.269063705101" lon="12.238814353562">
        <ele>559.8</ele>
        <time>2020-01-04T16:48:55Z</time>
      </trkpt>
      <trkpt lat="61.268995727892" lon="12.238890125938">
        <ele>558.6</ele>
        <time>2020-01-04T16:48:56Z</time>
      </trkpt>
      <trkpt lat="61.268729015834" lon="12.239090788624">
        <ele>559.4</ele>
        <time>2020-01-04T16:49:01Z</time>
      </trkpt>
      <trkpt lat="61.268682077194" lon="12.23910704951">
        <ele>559.8</ele>
        <time>2020-01-04T16:49:02Z</time>
      </trkpt>
      <trkpt lat="61.268537070324" lon="12.239183492438">
        <ele>561</ele>
        <time>2020-01-04T16:49:05Z</time>
      </trkpt>
      <trkpt lat="61.268449982383" lon="12.239251385828">
        <ele>561.4</ele>
        <time>2020-01-04T16:49:07Z</time>
      </trkpt>
      <trkpt lat="61.268362475347" lon="12.239376862871">
        <ele>561.4</ele>
        <time>2020-01-04T16:49:09Z</time>
      </trkpt>
      <trkpt lat="61.268195172623" lon="12.239657237426">
        <ele>561</ele>
        <time>2020-01-04T16:49:13Z</time>
      </trkpt>
      <trkpt lat="61.267903817779" lon="12.240014306366">
        <ele>560.2</ele>
        <time>2020-01-04T16:49:19Z</time>
      </trkpt>
      <trkpt lat="61.267824525005" lon="12.240152104802">
        <ele>560</ele>
        <time>2020-01-04T16:49:21Z</time>
      </trkpt>
      <trkpt lat="61.267768533913" lon="12.240302979002">
        <ele>560</ele>
        <time>2020-01-04T16:49:23Z</time>
      </trkpt>
      <trkpt lat="61.267697287763" lon="12.240926927638">
        <ele>558.2</ele>
        <time>2020-01-04T16:49:29Z</time>
      </trkpt>
      <trkpt lat="61.267684295818" lon="12.24104159203">
        <ele>557.2</ele>
        <time>2020-01-04T16:49:30Z</time>
      </trkpt>
      <trkpt lat="61.267664598353" lon="12.241286259691">
        <ele>556</ele>
        <time>2020-01-04T16:49:32Z</time>
      </trkpt>
      <trkpt lat="61.267669543674" lon="12.241537046139">
        <ele>555.2</ele>
        <time>2020-01-04T16:49:34Z</time>
      </trkpt>
      <trkpt lat="61.267695946659" lon="12.241787245854">
        <ele>554.4</ele>
        <time>2020-01-04T16:49:36Z</time>
      </trkpt>
      <trkpt lat="61.267727378784" lon="12.242055382835">
        <ele>553.2</ele>
        <time>2020-01-04T16:49:38Z</time>
      </trkpt>
      <trkpt lat="61.267764678239" lon="12.242342295272">
        <ele>551.4</ele>
        <time>2020-01-04T16:49:40Z</time>
      </trkpt>
      <trkpt lat="61.267798373477" lon="12.242632141374">
        <ele>550</ele>
        <time>2020-01-04T16:49:42Z</time>
      </trkpt>
      <trkpt lat="61.267848497239" lon="12.243087194725">
        <ele>548.6</ele>
        <time>2020-01-04T16:49:45Z</time>
      </trkpt>
      <trkpt lat="61.267835170018" lon="12.243433870109">
        <ele>547.2</ele>
        <time>2020-01-04T16:49:47Z</time>
      </trkpt>
      <trkpt lat="61.267802815884" lon="12.243605363783">
        <ele>545.8</ele>
        <time>2020-01-04T16:49:48Z</time>
      </trkpt>
      <trkpt lat="61.267748082077" lon="12.243755148336">
        <ele>544.4</ele>
        <time>2020-01-04T16:49:49Z</time>
      </trkpt>
      <trkpt lat="61.267680523963" lon="12.243883139949">
        <ele>543.2</ele>
        <time>2020-01-04T16:49:50Z</time>
      </trkpt>
      <trkpt lat="61.267611038012" lon="12.243977017229">
        <ele>542.6</ele>
        <time>2020-01-04T16:49:51Z</time>
      </trkpt>
      <trkpt lat="61.267481621476" lon="12.244110959991">
        <ele>542</ele>
        <time>2020-01-04T16:49:53Z</time>
      </trkpt>
      <trkpt lat="61.267178448153" lon="12.244456545728">
        <ele>543.8</ele>
        <time>2020-01-04T16:49:59Z</time>
      </trkpt>
      <trkpt lat="61.267106196175" lon="12.244540280909">
        <ele>545</ele>
        <time>2020-01-04T16:50:01Z</time>
      </trkpt>
      <trkpt lat="61.266703110604" lon="12.245075465224">
        <ele>545.8</ele>
        <time>2020-01-04T16:50:11Z</time>
      </trkpt>
      <trkpt lat="61.266558187553" lon="12.245272691331">
        <ele>546</ele>
        <time>2020-01-04T16:50:15Z</time>
      </trkpt>
      <trkpt lat="61.2662491469" lon="12.245747106871">
        <ele>544</ele>
        <time>2020-01-04T16:50:22Z</time>
      </trkpt>
      <trkpt lat="61.266204303735" lon="12.245817179555">
        <ele>543</ele>
        <time>2020-01-04T16:50:23Z</time>
      </trkpt>
      <trkpt lat="61.266110594093" lon="12.245949613575">
        <ele>541.6</ele>
        <time>2020-01-04T16:50:25Z</time>
      </trkpt>
      <trkpt lat="61.266057704304" lon="12.246011388178">
        <ele>541.4</ele>
        <time>2020-01-04T16:50:26Z</time>
      </trkpt>
      <trkpt lat="61.265942034084" lon="12.246071989315">
        <ele>541.2</ele>
        <time>2020-01-04T16:50:28Z</time>
      </trkpt>
      <trkpt lat="61.265753692791" lon="12.246051621298">
        <ele>542.8</ele>
        <time>2020-01-04T16:50:32Z</time>
      </trkpt>
      <trkpt lat="61.265638357847" lon="12.246051956574">
        <ele>544</ele>
        <time>2020-01-04T16:50:35Z</time>
      </trkpt>
      <trkpt lat="61.265346080994" lon="12.246069726202">
        <ele>545.2</ele>
        <time>2020-01-04T16:50:43Z</time>
      </trkpt>
      <trkpt lat="61.264916005705" lon="12.24609503954">
        <ele>546.2</ele>
        <time>2020-01-04T16:50:54Z</time>
      </trkpt>
      <trkpt lat="61.264456426128" lon="12.246282375005">
        <ele>547</ele>
        <time>2020-01-04T16:51:06Z</time>
      </trkpt>
      <trkpt lat="61.26441937813" lon="12.24632973274">
        <ele>547.2</ele>
        <time>2020-01-04T16:51:07Z</time>
      </trkpt>
      <trkpt lat="61.26438668872" lon="12.246365020539">
        <ele>547</ele>
        <time>2020-01-04T16:51:08Z</time>
      </trkpt>
      <trkpt lat="61.264049652521" lon="12.246796520751">
        <ele>546</ele>
        <time>2020-01-04T16:51:17Z</time>
      </trkpt>
      <trkpt lat="61.263938592346" lon="12.246857121888">
        <ele>545</ele>
        <time>2020-01-04T16:51:20Z</time>
      </trkpt>
      <trkpt lat="61.263470044136" lon="12.247018054368">
        <ele>545.6</ele>
        <time>2020-01-04T16:51:33Z</time>
      </trkpt>
      <trkpt lat="61.263271225468" lon="12.247273115585">
        <ele>545.6</ele>
        <time>2020-01-04T16:51:38Z</time>
      </trkpt>
      <trkpt lat="61.263213390358" lon="12.247397083886">
        <ele>545.4</ele>
        <time>2020-01-04T16:51:40Z</time>
      </trkpt>
      <trkpt lat="61.263114903033" lon="12.247896393669">
        <ele>544</ele>
        <time>2020-01-04T16:51:45Z</time>
      </trkpt>
      <trkpt lat="61.263092942455" lon="12.248012902079">
        <ele>543.8</ele>
        <time>2020-01-04T16:51:46Z</time>
      </trkpt>
      <trkpt lat="61.26306318671" lon="12.248119016933">
        <ele>543.4</ele>
        <time>2020-01-04T16:51:47Z</time>
      </trkpt>
      <trkpt lat="61.263022199219" lon="12.248217420439">
        <ele>542.6</ele>
        <time>2020-01-04T16:51:48Z</time>
      </trkpt>
      <trkpt lat="61.262789433856" lon="12.248552025887">
        <ele>541.6</ele>
        <time>2020-01-04T16:51:53Z</time>
      </trkpt>
      <trkpt lat="61.262548202774" lon="12.248980005701">
        <ele>539.8</ele>
        <time>2020-01-04T16:51:59Z</time>
      </trkpt>
      <trkpt lat="61.262497240822" lon="12.249061645407">
        <ele>538.8</ele>
        <time>2020-01-04T16:52:00Z</time>
      </trkpt>
      <trkpt lat="61.262445356861" lon="12.249132472462">
        <ele>538.4</ele>
        <time>2020-01-04T16:52:01Z</time>
      </trkpt>
      <trkpt lat="61.262213932602" lon="12.249447883359">
        <ele>539.4</ele>
        <time>2020-01-04T16:52:06Z</time>
      </trkpt>
      <trkpt lat="61.262176884604" lon="12.249512926903">
        <ele>539.8</ele>
        <time>2020-01-04T16:52:07Z</time>
      </trkpt>
      <trkpt lat="61.262113936535" lon="12.24968165455">
        <ele>539.8</ele>
        <time>2020-01-04T16:52:09Z</time>
      </trkpt>
      <trkpt lat="61.262081917677" lon="12.249887178738">
        <ele>539.6</ele>
        <time>2020-01-04T16:52:11Z</time>
      </trkpt>
      <trkpt lat="61.262065992067" lon="12.250229244077">
        <ele>538.8</ele>
        <time>2020-01-04T16:52:14Z</time>
      </trkpt>
      <trkpt lat="61.262050485552" lon="12.250342483546">
        <ele>538.2</ele>
        <time>2020-01-04T16:52:15Z</time>
      </trkpt>
      <trkpt lat="61.262027016232" lon="12.250457986128">
        <ele>537.4</ele>
        <time>2020-01-04T16:52:16Z</time>
      </trkpt>
      <trkpt lat="61.261998517772" lon="12.250573991624">
        <ele>536.4</ele>
        <time>2020-01-04T16:52:17Z</time>
      </trkpt>
      <trkpt lat="61.261963816706" lon="12.250682118134">
        <ele>535.4</ele>
        <time>2020-01-04T16:52:18Z</time>
      </trkpt>
      <trkpt lat="61.261922996853" lon="12.250778342346">
        <ele>534.8</ele>
        <time>2020-01-04T16:52:19Z</time>
      </trkpt>
      <trkpt lat="61.261821575863" lon="12.250928462175">
        <ele>534.2</ele>
        <time>2020-01-04T16:52:21Z</time>
      </trkpt>
      <trkpt lat="61.26172124452" lon="12.251043545662">
        <ele>533.8</ele>
        <time>2020-01-04T16:52:23Z</time>
      </trkpt>
      <trkpt lat="61.261565592637" lon="12.25130439039">
        <ele>532.6</ele>
        <time>2020-01-04T16:52:27Z</time>
      </trkpt>
      <trkpt lat="61.261459477783" lon="12.251555512114">
        <ele>532.2</ele>
        <time>2020-01-04T16:52:30Z</time>
      </trkpt>
      <trkpt lat="61.261396697352" lon="12.251761287759">
        <ele>531.8</ele>
        <time>2020-01-04T16:52:32Z</time>
      </trkpt>
      <trkpt lat="61.261368617987" lon="12.251871677382">
        <ele>531.6</ele>
        <time>2020-01-04T16:52:33Z</time>
      </trkpt>
      <trkpt lat="61.261350261626" lon="12.251986425593">
        <ele>531.6</ele>
        <time>2020-01-04T16:52:34Z</time>
      </trkpt>
      <trkpt lat="61.261342298821" lon="12.252327568923">
        <ele>530.8</ele>
        <time>2020-01-04T16:52:37Z</time>
      </trkpt>
      <trkpt lat="61.261351770368" lon="12.252443993514">
        <ele>530.4</ele>
        <time>2020-01-04T16:52:38Z</time>
      </trkpt>
      <trkpt lat="61.261375658783" lon="12.252690337555">
        <ele>529.2</ele>
        <time>2020-01-04T16:52:40Z</time>
      </trkpt>
      <trkpt lat="61.261401642673" lon="12.252932406827">
        <ele>527.6</ele>
        <time>2020-01-04T16:52:42Z</time>
      </trkpt>
      <trkpt lat="61.261438187757" lon="12.253172212986">
        <ele>526.2</ele>
        <time>2020-01-04T16:52:44Z</time>
      </trkpt>
      <trkpt lat="61.261522258214" lon="12.253652663494">
        <ele>525</ele>
        <time>2020-01-04T16:52:48Z</time>
      </trkpt>
      <trkpt lat="61.261593085269" lon="12.254104112628">
        <ele>524</ele>
        <time>2020-01-04T16:52:52Z</time>
      </trkpt>
      <trkpt lat="61.261609597612" lon="12.254853789764">
        <ele>522.6</ele>
        <time>2020-01-04T16:52:58Z</time>
      </trkpt>
      <trkpt lat="61.261589481052" lon="12.25528579289">
        <ele>521.4</ele>
        <time>2020-01-04T16:53:01Z</time>
      </trkpt>
      <trkpt lat="61.261502896025" lon="12.256128928211">
        <ele>521.6</ele>
        <time>2020-01-04T16:53:07Z</time>
      </trkpt>
      <trkpt lat="61.261274908345" lon="12.256986731857">
        <ele>520.6</ele>
        <time>2020-01-04T16:53:15Z</time>
      </trkpt>
      <trkpt lat="61.261244649686" lon="12.257086141191">
        <ele>520.4</ele>
        <time>2020-01-04T16:53:16Z</time>
      </trkpt>
      <trkpt lat="61.26099285741" lon="12.257914943463">
        <ele>519.2</ele>
        <time>2020-01-04T16:53:25Z</time>
      </trkpt>
      <trkpt lat="61.260868134738" lon="12.258333703187">
        <ele>518</ele>
        <time>2020-01-04T16:53:29Z</time>
      </trkpt>
      <trkpt lat="61.260844413961" lon="12.258445182457">
        <ele>518</ele>
        <time>2020-01-04T16:53:30Z</time>
      </trkpt>
      <trkpt lat="61.260769312137" lon="12.259094779707">
        <ele>517.4</ele>
        <time>2020-01-04T16:53:35Z</time>
      </trkpt>
      <trkpt lat="61.260768138671" lon="12.259226459356">
        <ele>517</ele>
        <time>2020-01-04T16:53:36Z</time>
      </trkpt>
      <trkpt lat="61.26077157525" lon="12.259357468453">
        <ele>515.8</ele>
        <time>2020-01-04T16:53:37Z</time>
      </trkpt>
      <trkpt lat="61.260776855847" lon="12.25948847755">
        <ele>514.6</ele>
        <time>2020-01-04T16:53:38Z</time>
      </trkpt>
      <trkpt lat="61.260787919955" lon="12.259618732276">
        <ele>513.4</ele>
        <time>2020-01-04T16:53:39Z</time>
      </trkpt>
      <trkpt lat="61.260817591881" lon="12.259876643339">
        <ele>511.8</ele>
        <time>2020-01-04T16:53:41Z</time>
      </trkpt>
      <trkpt lat="61.260848101997" lon="12.26013388385">
        <ele>510.6</ele>
        <time>2020-01-04T16:53:43Z</time>
      </trkpt>
      <trkpt lat="61.260910966247" lon="12.260630259968">
        <ele>509.2</ele>
        <time>2020-01-04T16:53:47Z</time>
      </trkpt>
      <trkpt lat="61.260946086408" lon="12.260894205999">
        <ele>508</ele>
        <time>2020-01-04T16:53:49Z</time>
      </trkpt>
      <trkpt lat="61.260980116922" lon="12.261167958853">
        <ele>506.6</ele>
        <time>2020-01-04T16:53:51Z</time>
      </trkpt>
      <trkpt lat="61.26101548854" lon="12.261476245135">
        <ele>505.2</ele>
        <time>2020-01-04T16:53:53Z</time>
      </trkpt>
      <trkpt lat="61.261057817135" lon="12.261787213625">
        <ele>503.8</ele>
        <time>2020-01-04T16:53:55Z</time>
      </trkpt>
      <trkpt lat="61.261099726635" lon="12.262098517391">
        <ele>502.2</ele>
        <time>2020-01-04T16:53:57Z</time>
      </trkpt>
      <trkpt lat="61.261143899248" lon="12.262393141176">
        <ele>500.8</ele>
        <time>2020-01-04T16:53:59Z</time>
      </trkpt>
      <trkpt lat="61.261185976386" lon="12.262669576238">
        <ele>499.4</ele>
        <time>2020-01-04T16:54:01Z</time>
      </trkpt>
      <trkpt lat="61.261228221162" lon="12.262946262757">
        <ele>497.8</ele>
        <time>2020-01-04T16:54:03Z</time>
      </trkpt>
      <trkpt lat="61.26126694554" lon="12.263342307532">
        <ele>496.8</ele>
        <time>2020-01-04T16:54:06Z</time>
      </trkpt>
      <trkpt lat="61.2612702983" lon="12.263471053516">
        <ele>496.6</ele>
        <time>2020-01-04T16:54:07Z</time>
      </trkpt>
      <trkpt lat="61.261244901143" lon="12.263896099665">
        <ele>495.8</ele>
        <time>2020-01-04T16:54:10Z</time>
      </trkpt>
      <trkpt lat="61.261218079063" lon="12.264288372585">
        <ele>494.2</ele>
        <time>2020-01-04T16:54:13Z</time>
      </trkpt>
      <trkpt lat="61.26120994862" lon="12.264420303691">
        <ele>493.4</ele>
        <time>2020-01-04T16:54:14Z</time>
      </trkpt>
      <trkpt lat="61.261208942792" lon="12.264555000824">
        <ele>492.8</ele>
        <time>2020-01-04T16:54:15Z</time>
      </trkpt>
      <trkpt lat="61.261213469018" lon="12.264698247495">
        <ele>492.2</ele>
        <time>2020-01-04T16:54:16Z</time>
      </trkpt>
      <trkpt lat="61.261224952221" lon="12.264841577985">
        <ele>491.4</ele>
        <time>2020-01-04T16:54:17Z</time>
      </trkpt>
      <trkpt lat="61.261246074609" lon="12.264981639534">
        <ele>490.6</ele>
        <time>2020-01-04T16:54:18Z</time>
      </trkpt>
      <trkpt lat="61.261275830354" lon="12.265118264504">
        <ele>490</ele>
        <time>2020-01-04T16:54:19Z</time>
      </trkpt>
      <trkpt lat="61.261307765393" lon="12.26525019561">
        <ele>489.4</ele>
        <time>2020-01-04T16:54:20Z</time>
      </trkpt>
      <trkpt lat="61.261350010169" lon="12.265375169739">
        <ele>488.8</ele>
        <time>2020-01-04T16:54:21Z</time>
      </trkpt>
      <trkpt lat="61.261401642673" lon="12.265461335671">
        <ele>488.4</ele>
        <time>2020-01-04T16:54:22Z</time>
      </trkpt>
      <trkpt lat="61.261453526634" lon="12.26554356211">
        <ele>487.8</ele>
        <time>2020-01-04T16:54:23Z</time>
      </trkpt>
      <trkpt lat="61.261513038124" lon="12.265661243986">
        <ele>487.4</ele>
        <time>2020-01-04T16:54:24Z</time>
      </trkpt>
      <trkpt lat="61.261573806899" lon="12.265722012761">
        <ele>486.8</ele>
        <time>2020-01-04T16:54:25Z</time>
      </trkpt>
      <trkpt lat="61.261636754968" lon="12.265768783763">
        <ele>486</ele>
        <time>2020-01-04T16:54:26Z</time>
      </trkpt>
      <trkpt lat="61.261701882331" lon="12.26579501911">
        <ele>485.2</ele>
        <time>2020-01-04T16:54:27Z</time>
      </trkpt>
      <trkpt lat="61.261771452101" lon="12.265804825933">
        <ele>484.4</ele>
        <time>2020-01-04T16:54:28Z</time>
      </trkpt>
      <trkpt lat="61.261842530613" lon="12.265792923635">
        <ele>484</ele>
        <time>2020-01-04T16:54:29Z</time>
      </trkpt>
      <trkpt lat="61.261976724832" lon="12.265753696343">
        <ele>483</ele>
        <time>2020-01-04T16:54:31Z</time>
      </trkpt>
      <trkpt lat="61.262292806281" lon="12.265597457727">
        <ele>484.6</ele>
        <time>2020-01-04T16:54:36Z</time>
      </trkpt>
      <trkpt lat="61.262339074369" lon="12.265569797457">
        <ele>485.6</ele>
        <time>2020-01-04T16:54:37Z</time>
      </trkpt>
      <trkpt lat="61.262427587233" lon="12.265514309279">
        <ele>486.8</ele>
        <time>2020-01-04T16:54:39Z</time>
      </trkpt>
      <trkpt lat="61.262768479106" lon="12.265365782011">
        <ele>487.6</ele>
        <time>2020-01-04T16:54:46Z</time>
      </trkpt>
      <trkpt lat="61.262951036888" lon="12.265366620201">
        <ele>486.8</ele>
        <time>2020-01-04T16:54:49Z</time>
      </trkpt>
      <trkpt lat="61.263078777044" lon="12.265419761447">
        <ele>485.4</ele>
        <time>2020-01-04T16:54:51Z</time>
      </trkpt>
      <trkpt lat="61.263141054561" lon="12.265447002622">
        <ele>484.2</ele>
        <time>2020-01-04T16:54:52Z</time>
      </trkpt>
      <trkpt lat="61.263203080621" lon="12.265469717571">
        <ele>482.8</ele>
        <time>2020-01-04T16:54:53Z</time>
      </trkpt>
      <trkpt lat="61.263326881284" lon="12.26552344555">
        <ele>481</ele>
        <time>2020-01-04T16:54:55Z</time>
      </trkpt>
      <trkpt lat="61.263445820445" lon="12.265574994235">
        <ele>479.2</ele>
        <time>2020-01-04T16:54:57Z</time>
      </trkpt>
      <trkpt lat="61.263559227552" lon="12.265608270378">
        <ele>477.8</ele>
        <time>2020-01-04T16:54:59Z</time>
      </trkpt>
      <trkpt lat="61.264014364722" lon="12.26557876609">
        <ele>478.6</ele>
        <time>2020-01-04T16:55:06Z</time>
      </trkpt>
      <trkpt lat="61.264064488484" lon="12.265570300371">
        <ele>479</ele>
        <time>2020-01-04T16:55:07Z</time>
      </trkpt>
      <trkpt lat="61.264211339372" lon="12.265524199921">
        <ele>479.4</ele>
        <time>2020-01-04T16:55:10Z</time>
      </trkpt>
      <trkpt lat="61.264422060338" lon="12.265417330696">
        <ele>480</ele>
        <time>2020-01-04T16:55:15Z</time>
      </trkpt>
      <trkpt lat="61.264666141266" lon="12.265253716008">
        <ele>478.8</ele>
        <time>2020-01-04T16:55:22Z</time>
      </trkpt>
      <trkpt lat="61.264827911936" lon="12.265154390493">
        <ele>480.4</ele>
        <time>2020-01-04T16:55:27Z</time>
      </trkpt>
      <trkpt lat="61.264913826411" lon="12.265098147944">
        <ele>481.4</ele>
        <time>2020-01-04T16:55:30Z</time>
      </trkpt>
      <trkpt lat="61.265136282037" lon="12.264827580212">
        <ele>480.2</ele>
        <time>2020-01-04T16:55:37Z</time>
      </trkpt>
      <trkpt lat="61.265330909755" lon="12.264463721933">
        <ele>479</ele>
        <time>2020-01-04T16:55:43Z</time>
      </trkpt>
      <trkpt lat="61.265467199449" lon="12.264201787558">
        <ele>478</ele>
        <time>2020-01-04T16:55:47Z</time>
      </trkpt>
      <trkpt lat="61.26569845607" lon="12.263710272942">
        <ele>479</ele>
        <time>2020-01-04T16:55:59Z</time>
      </trkpt>
      <trkpt lat="61.265846312786" lon="12.263398717719">
        <ele>480.4</ele>
        <time>2020-01-04T16:56:07Z</time>
      </trkpt>
      <trkpt lat="61.265925521741" lon="12.263262428025">
        <ele>481.4</ele>
        <time>2020-01-04T16:56:11Z</time>
      </trkpt>
      <trkpt lat="61.266031133681" lon="12.263118007888">
        <ele>482.8</ele>
        <time>2020-01-04T16:56:15Z</time>
      </trkpt>
      <trkpt lat="61.266396752159" lon="12.262677958138">
        <ele>481.8</ele>
        <time>2020-01-04T16:56:25Z</time>
      </trkpt>
      <trkpt lat="61.266443439342" lon="12.262637725018">
        <ele>480.8</ele>
        <time>2020-01-04T16:56:26Z</time>
      </trkpt>
      <trkpt lat="61.266493730742" lon="12.262605873798">
        <ele>479.2</ele>
        <time>2020-01-04T16:56:27Z</time>
      </trkpt>
      <trkpt lat="61.266545279427" lon="12.262575112225">
        <ele>477.2</ele>
        <time>2020-01-04T16:56:28Z</time>
      </trkpt>
      <trkpt lat="61.266600767605" lon="12.262549044516">
        <ele>475.8</ele>
        <time>2020-01-04T16:56:29Z</time>
      </trkpt>
      <trkpt lat="61.266663128941" lon="12.262526413386">
        <ele>474.2</ele>
        <time>2020-01-04T16:56:30Z</time>
      </trkpt>
      <trkpt lat="61.266728675399" lon="12.262508727577">
        <ele>473.2</ele>
        <time>2020-01-04T16:56:31Z</time>
      </trkpt>
      <trkpt lat="61.266795814418" lon="12.262489113931">
        <ele>472.2</ele>
        <time>2020-01-04T16:56:32Z</time>
      </trkpt>
      <trkpt lat="61.266930092456" lon="12.262446198603">
        <ele>470.4</ele>
        <time>2020-01-04T16:56:34Z</time>
      </trkpt>
      <trkpt lat="61.26717534685" lon="12.262363553069">
        <ele>469.6</ele>
        <time>2020-01-04T16:56:37Z</time>
      </trkpt>
      <trkpt lat="61.267363688143" lon="12.2623928059">
        <ele>470.2</ele>
        <time>2020-01-04T16:56:40Z</time>
      </trkpt>
      <trkpt lat="61.267457984518" lon="12.26241962798">
        <ele>472.4</ele>
        <time>2020-01-04T16:56:42Z</time>
      </trkpt>
      <trkpt lat="61.267541468242" lon="12.262448377897">
        <ele>473.8</ele>
        <time>2020-01-04T16:56:44Z</time>
      </trkpt>
      <trkpt lat="61.268012950117" lon="12.262537477494">
        <ele>474.2</ele>
        <time>2020-01-04T16:56:56Z</time>
      </trkpt>
      <trkpt lat="61.268327103729" lon="12.262631103317">
        <ele>474.4</ele>
        <time>2020-01-04T16:57:04Z</time>
      </trkpt>
      <trkpt lat="61.268579482738" lon="12.262682903459">
        <ele>473</ele>
        <time>2020-01-04T16:57:10Z</time>
      </trkpt>
      <trkpt lat="61.268627259568" lon="12.262697823241">
        <ele>472.6</ele>
        <time>2020-01-04T16:57:11Z</time>
      </trkpt>
      <trkpt lat="61.268762543434" lon="12.262723555674">
        <ele>471.6</ele>
        <time>2020-01-04T16:57:14Z</time>
      </trkpt>
      <trkpt lat="61.268852145945" lon="12.262746354442">
        <ele>470.6</ele>
        <time>2020-01-04T16:57:16Z</time>
      </trkpt>
      <trkpt lat="61.2689481187" lon="12.262751383582">
        <ele>470</ele>
        <time>2020-01-04T16:57:18Z</time>
      </trkpt>
      <trkpt lat="61.268991872218" lon="12.262746186804">
        <ele>469.4</ele>
        <time>2020-01-04T16:57:19Z</time>
      </trkpt>
      <trkpt lat="61.269448685768" lon="12.262637892656">
        <ele>468.8</ele>
        <time>2020-01-04T16:57:29Z</time>
      </trkpt>
      <trkpt lat="61.269726881029" lon="12.262531777802">
        <ele>468.2</ele>
        <time>2020-01-04T16:57:35Z</time>
      </trkpt>
      <trkpt lat="61.269837354471" lon="12.262487772827">
        <ele>466.8</ele>
        <time>2020-01-04T16:57:37Z</time>
      </trkpt>
      <trkpt lat="61.269943972239" lon="12.26245399377">
        <ele>465.6</ele>
        <time>2020-01-04T16:57:39Z</time>
      </trkpt>
      <trkpt lat="61.27040573111" lon="12.262403199456">
        <ele>465.4</ele>
        <time>2020-01-04T16:57:50Z</time>
      </trkpt>
      <trkpt lat="61.270895317889" lon="12.262337066265">
        <ele>464.8</ele>
        <time>2020-01-04T16:58:01Z</time>
      </trkpt>
      <trkpt lat="61.270949464963" lon="12.262321727388">
        <ele>464.2</ele>
        <time>2020-01-04T16:58:02Z</time>
      </trkpt>
      <trkpt lat="61.271196563375" lon="12.26224612265">
        <ele>463.2</ele>
        <time>2020-01-04T16:58:07Z</time>
      </trkpt>
      <trkpt lat="61.27141491187" lon="12.2621832584">
        <ele>462.6</ele>
        <time>2020-01-04T16:58:12Z</time>
      </trkpt>
      <trkpt lat="61.271494623739" lon="12.262144617841">
        <ele>462.6</ele>
        <time>2020-01-04T16:58:14Z</time>
      </trkpt>
      <trkpt lat="61.271609204312" lon="12.262069432198">
        <ele>462.2</ele>
        <time>2020-01-04T16:58:17Z</time>
      </trkpt>
      <trkpt lat="61.271958142809" lon="12.261935573255">
        <ele>462</ele>
        <time>2020-01-04T16:58:26Z</time>
      </trkpt>
      <trkpt lat="61.272052187727" lon="12.261925263518">
        <ele>461.8</ele>
        <time>2020-01-04T16:58:28Z</time>
      </trkpt>
      <trkpt lat="61.272488046527" lon="12.261738682424">
        <ele>461.2</ele>
        <time>2020-01-04T16:58:37Z</time>
      </trkpt>
      <trkpt lat="61.272927677182" lon="12.261530056933">
        <ele>459.8</ele>
        <time>2020-01-04T16:58:45Z</time>
      </trkpt>
      <trkpt lat="61.273043179764" lon="12.261505833242">
        <ele>458.4</ele>
        <time>2020-01-04T16:58:47Z</time>
      </trkpt>
      <trkpt lat="61.273261360621" lon="12.261475490764">
        <ele>457.2</ele>
        <time>2020-01-04T16:58:51Z</time>
      </trkpt>
      <trkpt lat="61.273482558962" lon="12.261431066694">
        <ele>455.8</ele>
        <time>2020-01-04T16:58:55Z</time>
      </trkpt>
      <trkpt lat="61.27370987609" lon="12.261360323458">
        <ele>454.6</ele>
        <time>2020-01-04T16:58:59Z</time>
      </trkpt>
      <trkpt lat="61.273922441074" lon="12.261295866647">
        <ele>453.4</ele>
        <time>2020-01-04T16:59:03Z</time>
      </trkpt>
      <trkpt lat="61.274070381609" lon="12.261228643809">
        <ele>452.8</ele>
        <time>2020-01-04T16:59:06Z</time>
      </trkpt>
      <trkpt lat="61.274171383504" lon="12.261192434001">
        <ele>452.2</ele>
        <time>2020-01-04T16:59:08Z</time>
      </trkpt>
      <trkpt lat="61.274357461684" lon="12.261102999128">
        <ele>451</ele>
        <time>2020-01-04T16:59:12Z</time>
      </trkpt>
      <trkpt lat="61.274569523754" lon="12.261006104364">
        <ele>452.2</ele>
        <time>2020-01-04T16:59:17Z</time>
      </trkpt>
      <trkpt lat="61.274853502526" lon="12.260872832154">
        <ele>453.2</ele>
        <time>2020-01-04T16:59:24Z</time>
      </trkpt>
      <trkpt lat="61.275301179805" lon="12.260685329051">
        <ele>452.4</ele>
        <time>2020-01-04T16:59:35Z</time>
      </trkpt>
      <trkpt lat="61.275539477222" lon="12.26058734464">
        <ele>452</ele>
        <time>2020-01-04T16:59:40Z</time>
      </trkpt>
      <trkpt lat="61.275720274805" lon="12.260518026327">
        <ele>450.6</ele>
        <time>2020-01-04T16:59:43Z</time>
      </trkpt>
      <trkpt lat="61.275839465423" lon="12.260461197045">
        <ele>449.4</ele>
        <time>2020-01-04T16:59:45Z</time>
      </trkpt>
      <trkpt lat="61.276290746919" lon="12.260258606522">
        <ele>449.2</ele>
        <time>2020-01-04T16:59:55Z</time>
      </trkpt>
      <trkpt lat="61.276443884232" lon="12.260184510526">
        <ele>448.4</ele>
        <time>2020-01-04T17:00:00Z</time>
      </trkpt>
      <trkpt lat="61.276628369851" lon="12.260096500576">
        <ele>449.4</ele>
        <time>2020-01-04T17:00:05Z</time>
      </trkpt>
      <trkpt lat="61.276702633485" lon="12.260054171981">
        <ele>449.6</ele>
        <time>2020-01-04T17:00:07Z</time>
      </trkpt>
      <trkpt lat="61.277127092901" lon="12.25985560477">
        <ele>448.2</ele>
        <time>2020-01-04T17:00:18Z</time>
      </trkpt>
      <trkpt lat="61.277569824859" lon="12.259613116403">
        <ele>447.6</ele>
        <time>2020-01-04T17:00:29Z</time>
      </trkpt>
      <trkpt lat="61.277717681575" lon="12.259530806145">
        <ele>447</ele>
        <time>2020-01-04T17:00:33Z</time>
      </trkpt>
      <trkpt lat="61.277925468876" lon="12.259452016285">
        <ele>446.2</ele>
        <time>2020-01-04T17:00:38Z</time>
      </trkpt>
      <trkpt lat="61.278016580129" lon="12.259418404866">
        <ele>446</ele>
        <time>2020-01-04T17:00:40Z</time>
      </trkpt>
      <trkpt lat="61.278057483801" lon="12.259408430405">
        <ele>446</ele>
        <time>2020-01-04T17:00:41Z</time>
      </trkpt>
      <trkpt lat="61.278346575532" lon="12.259264597001">
        <ele>446</ele>
        <time>2020-01-04T17:00:48Z</time>
      </trkpt>
      <trkpt lat="61.278461742838" lon="12.259187399702">
        <ele>445.6</ele>
        <time>2020-01-04T17:00:51Z</time>
      </trkpt>
      <trkpt lat="61.278897434" lon="12.258814908066">
        <ele>445.2</ele>
        <time>2020-01-04T17:01:04Z</time>
      </trkpt>
      <trkpt lat="61.279330107678" lon="12.258446355923">
        <ele>445.4</ele>
        <time>2020-01-04T17:01:17Z</time>
      </trkpt>
      <trkpt lat="61.279785328667" lon="12.258096076322">
        <ele>445.4</ele>
        <time>2020-01-04T17:01:29Z</time>
      </trkpt>
      <trkpt lat="61.279869063848" lon="12.258022734697">
        <ele>445</ele>
        <time>2020-01-04T17:01:31Z</time>
      </trkpt>
      <trkpt lat="61.280117671002" lon="12.257855180516">
        <ele>444</ele>
        <time>2020-01-04T17:01:36Z</time>
      </trkpt>
      <trkpt lat="61.28016561547" lon="12.257801284899">
        <ele>443.8</ele>
        <time>2020-01-04T17:01:37Z</time>
      </trkpt>
      <trkpt lat="61.280463340558" lon="12.257549241166">
        <ele>443.2</ele>
        <time>2020-01-04T17:01:44Z</time>
      </trkpt>
      <trkpt lat="61.280569790688" lon="12.25744664671">
        <ele>442.8</ele>
        <time>2020-01-04T17:01:47Z</time>
      </trkpt>
      <trkpt lat="61.280864079197" lon="12.257131906365">
        <ele>442.4</ele>
        <time>2020-01-04T17:01:55Z</time>
      </trkpt>
      <trkpt lat="61.280933565148" lon="12.257052781229">
        <ele>441.8</ele>
        <time>2020-01-04T17:01:57Z</time>
      </trkpt>
      <trkpt lat="61.280997770502" lon="12.25695882013">
        <ele>441.6</ele>
        <time>2020-01-04T17:01:59Z</time>
      </trkpt>
      <trkpt lat="61.281144872847" lon="12.25670736313">
        <ele>440.4</ele>
        <time>2020-01-04T17:02:04Z</time>
      </trkpt>
      <trkpt lat="61.281525578745" lon="12.256197492153">
        <ele>441.2</ele>
        <time>2020-01-04T17:02:17Z</time>
      </trkpt>
      <trkpt lat="61.281947272134" lon="12.255839920299">
        <ele>440.2</ele>
        <time>2020-01-04T17:02:30Z</time>
      </trkpt>
      <trkpt lat="61.282389165902" lon="12.255464578817">
        <ele>440.8</ele>
        <time>2020-01-04T17:02:43Z</time>
      </trkpt>
      <trkpt lat="61.28283860338" lon="12.255205159012">
        <ele>440.6</ele>
        <time>2020-01-04T17:02:55Z</time>
      </trkpt>
      <trkpt lat="61.283144123635" lon="12.255028217103">
        <ele>439.2</ele>
        <time>2020-01-04T17:03:03Z</time>
      </trkpt>
      <trkpt lat="61.28358543067" lon="12.254742478132">
        <ele>438.4</ele>
        <time>2020-01-04T17:03:14Z</time>
      </trkpt>
      <trkpt lat="61.283661119227" lon="12.254688498696">
        <ele>438</ele>
        <time>2020-01-04T17:03:16Z</time>
      </trkpt>
      <trkpt lat="61.284084656634" lon="12.254373758351">
        <ele>438</ele>
        <time>2020-01-04T17:03:29Z</time>
      </trkpt>
      <trkpt lat="61.284337119462" lon="12.254208132007">
        <ele>439.2</ele>
        <time>2020-01-04T17:03:37Z</time>
      </trkpt>
      <trkpt lat="61.284788820053" lon="12.25386673722">
        <ele>438.8</ele>
        <time>2020-01-04T17:03:51Z</time>
      </trkpt>
      <trkpt lat="61.285243538128" lon="12.253570688512">
        <ele>439.4</ele>
        <time>2020-01-04T17:04:04Z</time>
      </trkpt>
      <trkpt lat="61.285675289797" lon="12.253309424689">
        <ele>439.6</ele>
        <time>2020-01-04T17:04:16Z</time>
      </trkpt>
      <trkpt lat="61.285887016591" lon="12.253122508319">
        <ele>438</ele>
        <time>2020-01-04T17:04:23Z</time>
      </trkpt>
      <trkpt lat="61.285908222798" lon="12.253054698748">
        <ele>437.4</ele>
        <time>2020-01-04T17:04:27Z</time>
      </trkpt>
      <trkpt lat="61.28588961498" lon="12.253088561624">
        <ele>437</ele>
        <time>2020-01-04T17:04:31Z</time>
      </trkpt>
      <trkpt lat="61.285798922822" lon="12.253149498037">
        <ele>437.2</ele>
        <time>2020-01-04T17:04:48Z</time>
      </trkpt>
      <trkpt lat="61.285538161913" lon="12.253380000287">
        <ele>438</ele>
        <time>2020-01-04T17:04:56Z</time>
      </trkpt>
      <trkpt lat="61.285102470751" lon="12.253662302679">
        <ele>438.4</ele>
        <time>2020-01-04T17:05:09Z</time>
      </trkpt>
      <trkpt lat="61.284658984422" lon="12.253958183749">
        <ele>438.4</ele>
        <time>2020-01-04T17:05:22Z</time>
      </trkpt>
      <trkpt lat="61.284333263788" lon="12.254146441223">
        <ele>438.4</ele>
        <time>2020-01-04T17:05:31Z</time>
      </trkpt>
      <trkpt lat="61.284083566987" lon="12.254294297939">
        <ele>438.2</ele>
        <time>2020-01-04T17:05:37Z</time>
      </trkpt>
      <trkpt lat="61.283653910793" lon="12.254595794882">
        <ele>437.6</ele>
        <time>2020-01-04T17:05:47Z</time>
      </trkpt>
      <trkpt lat="61.2832141125" lon="12.254923191896">
        <ele>437.8</ele>
        <time>2020-01-04T17:05:59Z</time>
      </trkpt>
      <trkpt lat="61.282756963674" lon="12.255198788768">
        <ele>439</ele>
        <time>2020-01-04T17:06:13Z</time>
      </trkpt>
      <trkpt lat="61.282680269289" lon="12.255233992748">
        <ele>439.2</ele>
        <time>2020-01-04T17:06:16Z</time>
      </trkpt>
      <trkpt lat="61.282227814327" lon="12.255566083626">
        <ele>439.8</ele>
        <time>2020-01-04T17:06:30Z</time>
      </trkpt>
      <trkpt lat="61.281786004378" lon="12.255889708785">
        <ele>440</ele>
        <time>2020-01-04T17:06:43Z</time>
      </trkpt>
      <trkpt lat="61.281377973486" lon="12.256328249793">
        <ele>439.6</ele>
        <time>2020-01-04T17:06:55Z</time>
      </trkpt>
      <trkpt lat="61.280992406086" lon="12.256953204257">
        <ele>439.8</ele>
        <time>2020-01-04T17:07:06Z</time>
      </trkpt>
      <trkpt lat="61.280813117245" lon="12.257287139153">
        <ele>440.4</ele>
        <time>2020-01-04T17:07:13Z</time>
      </trkpt>
      <trkpt lat="61.280390920942" lon="12.257628198664">
        <ele>440.2</ele>
        <time>2020-01-04T17:07:25Z</time>
      </trkpt>
      <trkpt lat="61.280013232528" lon="12.257880158578">
        <ele>441.4</ele>
        <time>2020-01-04T17:07:38Z</time>
      </trkpt>
      <trkpt lat="61.27980519377" lon="12.258001612309">
        <ele>442.6</ele>
        <time>2020-01-04T17:07:45Z</time>
      </trkpt>
      <trkpt lat="61.2794506394" lon="12.258257846992">
        <ele>443.6</ele>
        <time>2020-01-04T17:07:57Z</time>
      </trkpt>
      <trkpt lat="61.279320552312" lon="12.258374690678">
        <ele>443.8</ele>
        <time>2020-01-04T17:08:01Z</time>
      </trkpt>
      <trkpt lat="61.278895841439" lon="12.258807196718">
        <ele>443</ele>
        <time>2020-01-04T17:08:12Z</time>
      </trkpt>
      <trkpt lat="61.278486637081" lon="12.259162254002">
        <ele>442.6</ele>
        <time>2020-01-04T17:08:22Z</time>
      </trkpt>
      <trkpt lat="61.278069721375" lon="12.259428546965">
        <ele>443.8</ele>
        <time>2020-01-04T17:08:34Z</time>
      </trkpt>
      <trkpt lat="61.27786478392" lon="12.259509264662">
        <ele>444.8</ele>
        <time>2020-01-04T17:08:41Z</time>
      </trkpt>
      <trkpt lat="61.27741467589" lon="12.259705149665">
        <ele>445.4</ele>
        <time>2020-01-04T17:08:55Z</time>
      </trkpt>
      <trkpt lat="61.276950234811" lon="12.25991846902">
        <ele>445.4</ele>
        <time>2020-01-04T17:09:09Z</time>
      </trkpt>
      <trkpt lat="61.27667203955" lon="12.260038414009">
        <ele>445.8</ele>
        <time>2020-01-04T17:09:18Z</time>
      </trkpt>
      <trkpt lat="61.276315222067" lon="12.260196496643">
        <ele>447</ele>
        <time>2020-01-04T17:09:28Z</time>
      </trkpt>
      <trkpt lat="61.275961002973" lon="12.2603643861">
        <ele>446</ele>
        <time>2020-01-04T17:09:37Z</time>
      </trkpt>
      <trkpt lat="61.275523803069" lon="12.260589943029">
        <ele>446.8</ele>
        <time>2020-01-04T17:09:51Z</time>
      </trkpt>
      <trkpt lat="61.275495975161" lon="12.260604527535">
        <ele>447.2</ele>
        <time>2020-01-04T17:09:52Z</time>
      </trkpt>
      <trkpt lat="61.275337389613" lon="12.260684155585">
        <ele>448.2</ele>
        <time>2020-01-04T17:09:58Z</time>
      </trkpt>
      <trkpt lat="61.275185677223" lon="12.260752551889">
        <ele>449.4</ele>
        <time>2020-01-04T17:10:04Z</time>
      </trkpt>
      <trkpt lat="61.274974201886" lon="12.2608170087">
        <ele>450.4</ele>
        <time>2020-01-04T17:10:12Z</time>
      </trkpt>
      <trkpt lat="61.274693994969" lon="12.260937456603">
        <ele>449.4</ele>
        <time>2020-01-04T17:10:22Z</time>
      </trkpt>
      <trkpt lat="61.274228045148" lon="12.261105513698">
        <ele>449</ele>
        <time>2020-01-04T17:10:35Z</time>
      </trkpt>
      <trkpt lat="61.273759413119" lon="12.261276839734">
        <ele>449.4</ele>
        <time>2020-01-04T17:10:50Z</time>
      </trkpt>
      <trkpt lat="61.273489264482" lon="12.261378847457">
        <ele>450.4</ele>
        <time>2020-01-04T17:11:00Z</time>
      </trkpt>
      <trkpt lat="61.273198077276" lon="12.261470713081">
        <ele>451.4</ele>
        <time>2020-01-04T17:11:13Z</time>
      </trkpt>
      <trkpt lat="61.273066565265" lon="12.261499798274">
        <ele>452.6</ele>
        <time>2020-01-04T17:11:18Z</time>
      </trkpt>
      <trkpt lat="61.272895658324" lon="12.261541456317">
        <ele>453.6</ele>
        <time>2020-01-04T17:11:24Z</time>
      </trkpt>
      <trkpt lat="61.272724499926" lon="12.261611864277">
        <ele>454.8</ele>
        <time>2020-01-04T17:11:31Z</time>
      </trkpt>
      <trkpt lat="61.27241487254" lon="12.261761984106">
        <ele>455.8</ele>
        <time>2020-01-04T17:11:44Z</time>
      </trkpt>
      <trkpt lat="61.272240445201" lon="12.261849910237">
        <ele>456.8</ele>
        <time>2020-01-04T17:11:51Z</time>
      </trkpt>
      <trkpt lat="61.272106083344" lon="12.261888047882">
        <ele>458</ele>
        <time>2020-01-04T17:11:56Z</time>
      </trkpt>
      <trkpt lat="61.271858984932" lon="12.261952672331">
        <ele>458.8</ele>
        <time>2020-01-04T17:12:04Z</time>
      </trkpt>
      <trkpt lat="61.27173174769" lon="12.261998688962">
        <ele>459.2</ele>
        <time>2020-01-04T17:12:08Z</time>
      </trkpt>
      <trkpt lat="61.271276191425" lon="12.262125590928">
        <ele>459</ele>
        <time>2020-01-04T17:12:22Z</time>
      </trkpt>
      <trkpt lat="61.270823065911" lon="12.262247128478">
        <ele>460.2</ele>
        <time>2020-01-04T17:12:37Z</time>
      </trkpt>
      <trkpt lat="61.270793393985" lon="12.262255845654">
        <ele>460.4</ele>
        <time>2020-01-04T17:12:38Z</time>
      </trkpt>
      <trkpt lat="61.270493908698" lon="12.262323990501">
        <ele>461.6</ele>
        <time>2020-01-04T17:12:49Z</time>
      </trkpt>
      <trkpt lat="61.270017565321" lon="12.262401523076">
        <ele>461.8</ele>
        <time>2020-01-04T17:13:03Z</time>
      </trkpt>
      <trkpt lat="61.269553962432" lon="12.262579470813">
        <ele>462.6</ele>
        <time>2020-01-04T17:13:20Z</time>
      </trkpt>
      <trkpt lat="61.269529152008" lon="12.262591373111">
        <ele>462.8</ele>
        <time>2020-01-04T17:13:21Z</time>
      </trkpt>
      <trkpt lat="61.26938146293" lon="12.262661110519">
        <ele>464</ele>
        <time>2020-01-04T17:13:26Z</time>
      </trkpt>
      <trkpt lat="61.269036631564" lon="12.262753143781">
        <ele>465</ele>
        <time>2020-01-04T17:13:38Z</time>
      </trkpt>
      <trkpt lat="61.268718035545" lon="12.262709725539">
        <ele>466</ele>
        <time>2020-01-04T17:13:50Z</time>
      </trkpt>
      <trkpt lat="61.268550062269" lon="12.26266857041">
        <ele>467.2</ele>
        <time>2020-01-04T17:13:57Z</time>
      </trkpt>
      <trkpt lat="61.268305729884" lon="12.262599419735">
        <ele>468.4</ele>
        <time>2020-01-04T17:14:07Z</time>
      </trkpt>
      <trkpt lat="61.26816189648" lon="12.262592043663">
        <ele>469.4</ele>
        <time>2020-01-04T17:14:12Z</time>
      </trkpt>
      <trkpt lat="61.267707681319" lon="12.262462124213">
        <ele>470</ele>
        <time>2020-01-04T17:14:26Z</time>
      </trkpt>
      <trkpt lat="61.267250700131" lon="12.262291301091">
        <ele>470.2</ele>
        <time>2020-01-04T17:14:40Z</time>
      </trkpt>
      <trkpt lat="61.267150536426" lon="12.262288115969">
        <ele>470.4</ele>
        <time>2020-01-04T17:14:43Z</time>
      </trkpt>
      <trkpt lat="61.266721802241" lon="12.262455586331">
        <ele>471.4</ele>
        <time>2020-01-04T17:14:59Z</time>
      </trkpt>
      <trkpt lat="61.266592553343" lon="12.262503614618">
        <ele>472.6</ele>
        <time>2020-01-04T17:15:05Z</time>
      </trkpt>
      <trkpt lat="61.266495407122" lon="12.262553570742">
        <ele>473.8</ele>
        <time>2020-01-04T17:15:09Z</time>
      </trkpt>
      <trkpt lat="61.266431620863" lon="12.26257888408">
        <ele>474.8</ele>
        <time>2020-01-04T17:15:12Z</time>
      </trkpt>
      <trkpt lat="61.266355513211" lon="12.262646023099">
        <ele>476</ele>
        <time>2020-01-04T17:15:16Z</time>
      </trkpt>
      <trkpt lat="61.266180582958" lon="12.262832352736">
        <ele>477.2</ele>
        <time>2020-01-04T17:15:25Z</time>
      </trkpt>
      <trkpt lat="61.266033983527" lon="12.263058244941">
        <ele>478.2</ele>
        <time>2020-01-04T17:15:31Z</time>
      </trkpt>
      <trkpt lat="61.26602451198" lon="12.263091604903">
        <ele>478.2</ele>
        <time>2020-01-04T17:15:32Z</time>
      </trkpt>
      <trkpt lat="61.266020069573" lon="12.263121695924">
        <ele>478.2</ele>
        <time>2020-01-04T17:15:34Z</time>
      </trkpt>
      <trkpt lat="61.266071534439" lon="12.263069057592">
        <ele>477.8</ele>
        <time>2020-01-04T17:15:39Z</time>
      </trkpt>
      <trkpt lat="61.266391974476" lon="12.262702517105">
        <ele>478</ele>
        <time>2020-01-04T17:15:51Z</time>
      </trkpt>
      <trkpt lat="61.266483421005" lon="12.26265096842">
        <ele>476.4</ele>
        <time>2020-01-04T17:15:53Z</time>
      </trkpt>
      <trkpt lat="61.266540166468" lon="12.262624481616">
        <ele>475</ele>
        <time>2020-01-04T17:15:54Z</time>
      </trkpt>
      <trkpt lat="61.266670169737" lon="12.262562539375">
        <ele>473</ele>
        <time>2020-01-04T17:15:56Z</time>
      </trkpt>
      <trkpt lat="61.266738230765" lon="12.262532699811">
        <ele>471.8</ele>
        <time>2020-01-04T17:15:57Z</time>
      </trkpt>
      <trkpt lat="61.266808303449" lon="12.262505877731">
        <ele>470.6</ele>
        <time>2020-01-04T17:15:58Z</time>
      </trkpt>
      <trkpt lat="61.26695490288" lon="12.262453658494">
        <ele>468.6</ele>
        <time>2020-01-04T17:16:00Z</time>
      </trkpt>
      <trkpt lat="61.267022209537" lon="12.262434128667">
        <ele>467.6</ele>
        <time>2020-01-04T17:16:01Z</time>
      </trkpt>
      <trkpt lat="61.26716025943" lon="12.26240202599">
        <ele>466.2</ele>
        <time>2020-01-04T17:16:03Z</time>
      </trkpt>
      <trkpt lat="61.267220692929" lon="12.262398840868">
        <ele>466</ele>
        <time>2020-01-04T17:16:04Z</time>
      </trkpt>
      <trkpt lat="61.267341559927" lon="12.2624011878">
        <ele>467</ele>
        <time>2020-01-04T17:16:06Z</time>
      </trkpt>
      <trkpt lat="61.267414985371" lon="12.262412838641">
        <ele>468</ele>
        <time>2020-01-04T17:16:07Z</time>
      </trkpt>
      <trkpt lat="61.267471144101" lon="12.262427926061">
        <ele>469.2</ele>
        <time>2020-01-04T17:16:08Z</time>
      </trkpt>
      <trkpt lat="61.267518250379" lon="12.262447120612">
        <ele>470.2</ele>
        <time>2020-01-04T17:16:09Z</time>
      </trkpt>
      <trkpt lat="61.267613384944" lon="12.262476289624">
        <ele>471.4</ele>
        <time>2020-01-04T17:16:11Z</time>
      </trkpt>
      <trkpt lat="61.267656635548" lon="12.262484755343">
        <ele>471.8</ele>
        <time>2020-01-04T17:16:12Z</time>
      </trkpt>
      <trkpt lat="61.26802946246" lon="12.262548876878">
        <ele>471</ele>
        <time>2020-01-04T17:16:21Z</time>
      </trkpt>
      <trkpt lat="61.268490718417" lon="12.262630097489">
        <ele>471.2</ele>
        <time>2020-01-04T17:16:32Z</time>
      </trkpt>
      <trkpt lat="61.268687609248" lon="12.262680724165">
        <ele>470</ele>
        <time>2020-01-04T17:16:36Z</time>
      </trkpt>
      <trkpt lat="61.268840411285" lon="12.262712826842">
        <ele>468.8</ele>
        <time>2020-01-04T17:16:39Z</time>
      </trkpt>
      <trkpt lat="61.269031686243" lon="12.262735374153">
        <ele>467.8</ele>
        <time>2020-01-04T17:16:43Z</time>
      </trkpt>
      <trkpt lat="61.26913587326" lon="12.262724561502">
        <ele>467.8</ele>
        <time>2020-01-04T17:16:45Z</time>
      </trkpt>
      <trkpt lat="61.269465198111" lon="12.262649543497">
        <ele>466.4</ele>
        <time>2020-01-04T17:16:52Z</time>
      </trkpt>
      <trkpt lat="61.269604840565" lon="12.262605873798">
        <ele>465.2</ele>
        <time>2020-01-04T17:16:55Z</time>
      </trkpt>
      <trkpt lat="61.269755379489" lon="12.262541836082">
        <ele>464.6</ele>
        <time>2020-01-04T17:16:58Z</time>
      </trkpt>
      <trkpt lat="61.269924526231" lon="12.262455418693">
        <ele>463.8</ele>
        <time>2020-01-04T17:17:01Z</time>
      </trkpt>
      <trkpt lat="61.270094846439" lon="12.262408312415">
        <ele>462.8</ele>
        <time>2020-01-04T17:17:04Z</time>
      </trkpt>
      <trkpt lat="61.270567250323" lon="12.262332037125">
        <ele>462</ele>
        <time>2020-01-04T17:17:15Z</time>
      </trkpt>
      <trkpt lat="61.270735642694" lon="12.262301527009">
        <ele>461.8</ele>
        <time>2020-01-04T17:17:19Z</time>
      </trkpt>
      <trkpt lat="61.270994475766" lon="12.262239920044">
        <ele>462.2</ele>
        <time>2020-01-04T17:17:24Z</time>
      </trkpt>
      <trkpt lat="61.271101764086" lon="12.262212930326">
        <ele>461.6</ele>
        <time>2020-01-04T17:17:26Z</time>
      </trkpt>
      <trkpt lat="61.271198239755" lon="12.262192813766">
        <ele>460.6</ele>
        <time>2020-01-04T17:17:28Z</time>
      </trkpt>
      <trkpt lat="61.271325644635" lon="12.262159956718">
        <ele>460.2</ele>
        <time>2020-01-04T17:17:31Z</time>
      </trkpt>
      <trkpt lat="61.271800227813" lon="12.262011345631">
        <ele>461.2</ele>
        <time>2020-01-04T17:17:44Z</time>
      </trkpt>
      <trkpt lat="61.272152435251" lon="12.261875391213">
        <ele>460.4</ele>
        <time>2020-01-04T17:17:53Z</time>
      </trkpt>
      <trkpt lat="61.272471450365" lon="12.261746393772">
        <ele>459.2</ele>
        <time>2020-01-04T17:18:00Z</time>
      </trkpt>
      <trkpt lat="61.272576224115" lon="12.26168621173">
        <ele>458.2</ele>
        <time>2020-01-04T17:18:02Z</time>
      </trkpt>
      <trkpt lat="61.272674040888" lon="12.261614462666">
        <ele>457</ele>
        <time>2020-01-04T17:18:04Z</time>
      </trkpt>
      <trkpt lat="61.272835811558" lon="12.261530476028">
        <ele>455.8</ele>
        <time>2020-01-04T17:18:07Z</time>
      </trkpt>
      <trkpt lat="61.273091878603" lon="12.261462666457">
        <ele>454.6</ele>
        <time>2020-01-04T17:18:12Z</time>
      </trkpt>
      <trkpt lat="61.273313747496" lon="12.2614456512">
        <ele>453.8</ele>
        <time>2020-01-04T17:18:16Z</time>
      </trkpt>
      <trkpt lat="61.27343327339" lon="12.261418745301">
        <ele>453.6</ele>
        <time>2020-01-04T17:18:18Z</time>
      </trkpt>
      <trkpt lat="61.273788163036" lon="12.261323024003">
        <ele>452.4</ele>
        <time>2020-01-04T17:18:24Z</time>
      </trkpt>
      <trkpt lat="61.273894613166" lon="12.261276923553">
        <ele>451</ele>
        <time>2020-01-04T17:18:26Z</time>
      </trkpt>
      <trkpt lat="61.274359557159" lon="12.261091767382">
        <ele>450</ele>
        <time>2020-01-04T17:18:36Z</time>
      </trkpt>
      <trkpt lat="61.274399119727" lon="12.261076763781">
        <ele>449.8</ele>
        <time>2020-01-04T17:18:37Z</time>
      </trkpt>
      <trkpt lat="61.274843528065" lon="12.260895044189">
        <ele>450.6</ele>
        <time>2020-01-04T17:18:49Z</time>
      </trkpt>
      <trkpt lat="61.274882839176" lon="12.260879537674">
        <ele>451.2</ele>
        <time>2020-01-04T17:18:50Z</time>
      </trkpt>
      <trkpt lat="61.275180145169" lon="12.260790773353">
        <ele>450</ele>
        <time>2020-01-04T17:18:58Z</time>
      </trkpt>
      <trkpt lat="61.275340658554" lon="12.260716593538">
        <ele>449.2</ele>
        <time>2020-01-04T17:19:02Z</time>
      </trkpt>
      <trkpt lat="61.275749946731" lon="12.260523474562">
        <ele>447.6</ele>
        <time>2020-01-04T17:19:11Z</time>
      </trkpt>
      <trkpt lat="61.275795879543" lon="12.260496987758">
        <ele>445.6</ele>
        <time>2020-01-04T17:19:12Z</time>
      </trkpt>
      <trkpt lat="61.27584055507" lon="12.260472177334">
        <ele>444.2</ele>
        <time>2020-01-04T17:19:13Z</time>
      </trkpt>
      <trkpt lat="61.275929654667" lon="12.260425909246">
        <ele>442.8</ele>
        <time>2020-01-04T17:19:15Z</time>
      </trkpt>
      <trkpt lat="61.276149930999" lon="12.260356088019">
        <ele>444.6</ele>
        <time>2020-01-04T17:19:20Z</time>
      </trkpt>
      <trkpt lat="61.27621857876" lon="12.260322979514">
        <ele>445.4</ele>
        <time>2020-01-04T17:19:22Z</time>
      </trkpt>
      <trkpt lat="61.276453691055" lon="12.260199765584">
        <ele>445.8</ele>
        <time>2020-01-04T17:19:29Z</time>
      </trkpt>
      <trkpt lat="61.276916120478" lon="12.259934478449">
        <ele>445.4</ele>
        <time>2020-01-04T17:19:41Z</time>
      </trkpt>
      <trkpt lat="61.276955263951" lon="12.259922492332">
        <ele>444.4</ele>
        <time>2020-01-04T17:19:42Z</time>
      </trkpt>
      <trkpt lat="61.277170678781" lon="12.259828531233">
        <ele>444.2</ele>
        <time>2020-01-04T17:19:47Z</time>
      </trkpt>
      <trkpt lat="61.277299173308" lon="12.259767762458">
        <ele>443.8</ele>
        <time>2020-01-04T17:19:50Z</time>
      </trkpt>
      <trkpt lat="61.277774091762" lon="12.2595597237">
        <ele>443.6</ele>
        <time>2020-01-04T17:20:02Z</time>
      </trkpt>
      <trkpt lat="61.277854055088" lon="12.259517562743">
        <ele>443.6</ele>
        <time>2020-01-04T17:20:04Z</time>
      </trkpt>
      <trkpt lat="61.27822939657" lon="12.259365431258">
        <ele>443.4</ele>
        <time>2020-01-04T17:20:12Z</time>
      </trkpt>
      <trkpt lat="61.278365099531" lon="12.259286306122">
        <ele>442.6</ele>
        <time>2020-01-04T17:20:15Z</time>
      </trkpt>
      <trkpt lat="61.27840541647" lon="12.259249258124">
        <ele>442.2</ele>
        <time>2020-01-04T17:20:16Z</time>
      </trkpt>
      <trkpt lat="61.278559308154" lon="12.259117243199">
        <ele>441.8</ele>
        <time>2020-01-04T17:20:20Z</time>
      </trkpt>
      <trkpt lat="61.279001621017" lon="12.258729664143">
        <ele>442</ele>
        <time>2020-01-04T17:20:34Z</time>
      </trkpt>
      <trkpt lat="61.279421470388" lon="12.258336217757">
        <ele>443</ele>
        <time>2020-01-04T17:20:47Z</time>
      </trkpt>
      <trkpt lat="61.279455249445" lon="12.258305623822">
        <ele>443.6</ele>
        <time>2020-01-04T17:20:48Z</time>
      </trkpt>
      <trkpt lat="61.279905860389" lon="12.25795626623">
        <ele>442.4</ele>
        <time>2020-01-04T17:20:59Z</time>
      </trkpt>
      <trkpt lat="61.28008347285" lon="12.257815953224">
        <ele>441.2</ele>
        <time>2020-01-04T17:21:03Z</time>
      </trkpt>
      <trkpt lat="61.280277513835" lon="12.257645800654">
        <ele>440</ele>
        <time>2020-01-04T17:21:08Z</time>
      </trkpt>
      <trkpt lat="61.280717647404" lon="12.257223017618">
        <ele>439</ele>
        <time>2020-01-04T17:21:21Z</time>
      </trkpt>
      <trkpt lat="61.28081353634" lon="12.257120255524">
        <ele>438.8</ele>
        <time>2020-01-04T17:21:24Z</time>
      </trkpt>
      <trkpt lat="61.281017384148" lon="12.25686159009">
        <ele>439</ele>
        <time>2020-01-04T17:21:30Z</time>
      </trkpt>
      <trkpt lat="61.281112267256" lon="12.256719013971">
        <ele>438.4</ele>
        <time>2020-01-04T17:21:33Z</time>
      </trkpt>
      <trkpt lat="61.281141855363" lon="12.256679786679">
        <ele>440</ele>
        <time>2020-01-04T17:21:34Z</time>
      </trkpt>
      <trkpt lat="61.281171862565" lon="12.256633853867">
        <ele>441.8</ele>
        <time>2020-01-04T17:21:35Z</time>
      </trkpt>
      <trkpt lat="61.281294908857" lon="12.256475938871">
        <ele>440.2</ele>
        <time>2020-01-04T17:21:39Z</time>
      </trkpt>
      <trkpt lat="61.281727917811" lon="12.256085845245">
        <ele>440.8</ele>
        <time>2020-01-04T17:21:53Z</time>
      </trkpt>
      <trkpt lat="61.282093536289" lon="12.255769931434">
        <ele>441.2</ele>
        <time>2020-01-04T17:22:04Z</time>
      </trkpt>
      <trkpt lat="61.282496202765" lon="12.255422585498">
        <ele>440.2</ele>
        <time>2020-01-04T17:22:16Z</time>
      </trkpt>
      <trkpt lat="61.282740367512" lon="12.255277997723">
        <ele>440.6</ele>
        <time>2020-01-04T17:22:22Z</time>
      </trkpt>
      <trkpt lat="61.283194247397" lon="12.25503182132">
        <ele>439.6</ele>
        <time>2020-01-04T17:22:33Z</time>
      </trkpt>
      <trkpt lat="61.283307235409" lon="12.254954875478">
        <ele>439.2</ele>
        <time>2020-01-04T17:22:36Z</time>
      </trkpt>
      <trkpt lat="61.283424833466" lon="12.254872229944">
        <ele>439</ele>
        <time>2020-01-04T17:22:39Z</time>
      </trkpt>
      <trkpt lat="61.283868235976" lon="12.254528572044">
        <ele>438</ele>
        <time>2020-01-04T17:22:51Z</time>
      </trkpt>
      <trkpt lat="61.284270399538" lon="12.25424392272">
        <ele>439.2</ele>
        <time>2020-01-04T17:23:04Z</time>
      </trkpt>
      <trkpt lat="61.284706509795" lon="12.253980228146">
        <ele>439.8</ele>
        <time>2020-01-04T17:23:17Z</time>
      </trkpt>
      <trkpt lat="61.284774738461" lon="12.253929014737">
        <ele>440.2</ele>
        <time>2020-01-04T17:23:19Z</time>
      </trkpt>
      <trkpt lat="61.285224343577" lon="12.2536421023">
        <ele>439.2</ele>
        <time>2020-01-04T17:23:32Z</time>
      </trkpt>
      <trkpt lat="61.285303552532" lon="12.253608742338">
        <ele>439.2</ele>
        <time>2020-01-04T17:23:34Z</time>
      </trkpt>
      <trkpt lat="61.285748715241" lon="12.253365751057">
        <ele>438.4</ele>
        <time>2020-01-04T17:23:47Z</time>
      </trkpt>
      <trkpt lat="61.285806969446" lon="12.253285117179">
        <ele>438.2</ele>
        <time>2020-01-04T17:23:49Z</time>
      </trkpt>
      <trkpt lat="61.286221119125" lon="12.252867028007">
        <ele>438.8</ele>
        <time>2020-01-04T17:24:04Z</time>
      </trkpt>
      <trkpt lat="61.286664437816" lon="12.252740628955">
        <ele>437.2</ele>
        <time>2020-01-04T17:24:15Z</time>
      </trkpt>
      <trkpt lat="61.28670601204" lon="12.252725038621">
        <ele>437.2</ele>
        <time>2020-01-04T17:24:16Z</time>
      </trkpt>
      <trkpt lat="61.286822185174" lon="12.252657983421">
        <ele>438.2</ele>
        <time>2020-01-04T17:24:19Z</time>
      </trkpt>
      <trkpt lat="61.287222923813" lon="12.252237882593">
        <ele>437.8</ele>
        <time>2020-01-04T17:24:33Z</time>
      </trkpt>
      <trkpt lat="61.28760706629" lon="12.251728179254">
        <ele>437.8</ele>
        <time>2020-01-04T17:24:48Z</time>
      </trkpt>
      <trkpt lat="61.287970589293" lon="12.251139686055">
        <ele>439.2</ele>
        <time>2020-01-04T17:25:04Z</time>
      </trkpt>
      <trkpt lat="61.288174688558" lon="12.250835925999">
        <ele>440.4</ele>
        <time>2020-01-04T17:25:12Z</time>
      </trkpt>
      <trkpt lat="61.288542905425" lon="12.250302082788">
        <ele>440.6</ele>
        <time>2020-01-04T17:25:27Z</time>
      </trkpt>
      <trkpt lat="61.288810036578" lon="12.249978457629">
        <ele>441.4</ele>
        <time>2020-01-04T17:25:37Z</time>
      </trkpt>
      <trkpt lat="61.289174062495" lon="12.249651982624">
        <ele>442.4</ele>
        <time>2020-01-04T17:25:50Z</time>
      </trkpt>
      <trkpt lat="61.289620733946" lon="12.249311258389">
        <ele>442.8</ele>
        <time>2020-01-04T17:26:04Z</time>
      </trkpt>
      <trkpt lat="61.290050306321" lon="12.2489901478">
        <ele>442.6</ele>
        <time>2020-01-04T17:26:17Z</time>
      </trkpt>
      <trkpt lat="61.290463198715" lon="12.248672725247">
        <ele>441.4</ele>
        <time>2020-01-04T17:26:29Z</time>
      </trkpt>
      <trkpt lat="61.290893776918" lon="12.248350944106">
        <ele>442</ele>
        <time>2020-01-04T17:26:42Z</time>
      </trkpt>
      <trkpt lat="61.291084465143" lon="12.248200405182">
        <ele>442.6</ele>
        <time>2020-01-04T17:26:48Z</time>
      </trkpt>
      <trkpt lat="61.29153314825" lon="12.247836714541">
        <ele>442.4</ele>
        <time>2020-01-04T17:27:02Z</time>
      </trkpt>
      <trkpt lat="61.291811175873" lon="12.2477915361">
        <ele>441.4</ele>
        <time>2020-01-04T17:27:09Z</time>
      </trkpt>
      <trkpt lat="61.291985435574" lon="12.247798576896">
        <ele>440.4</ele>
        <time>2020-01-04T17:27:13Z</time>
      </trkpt>
      <trkpt lat="61.292158689447" lon="12.247824141691">
        <ele>439.4</ele>
        <time>2020-01-04T17:27:17Z</time>
      </trkpt>
      <trkpt lat="61.292293051304" lon="12.2478418275">
        <ele>439.4</ele>
        <time>2020-01-04T17:27:20Z</time>
      </trkpt>
      <trkpt lat="61.292739052203" lon="12.24774292108">
        <ele>438.8</ele>
        <time>2020-01-04T17:27:33Z</time>
      </trkpt>
      <trkpt lat="61.293201816902" lon="12.247569667207">
        <ele>439.4</ele>
        <time>2020-01-04T17:27:45Z</time>
      </trkpt>
      <trkpt lat="61.293379429363" lon="12.247487021673">
        <ele>438.4</ele>
        <time>2020-01-04T17:27:49Z</time>
      </trkpt>
      <trkpt lat="61.293869016142" lon="12.247340506061">
        <ele>437</ele>
        <time>2020-01-04T17:28:00Z</time>
      </trkpt>
      <trkpt lat="61.294085604438" lon="12.247274624327">
        <ele>435.8</ele>
        <time>2020-01-04T17:28:04Z</time>
      </trkpt>
      <trkpt lat="61.294298756155" lon="12.247198516675">
        <ele>434.4</ele>
        <time>2020-01-04T17:28:08Z</time>
      </trkpt>
      <trkpt lat="61.294446193776" lon="12.247156858632">
        <ele>433.4</ele>
        <time>2020-01-04T17:28:11Z</time>
      </trkpt>
      <trkpt lat="61.29466965523" lon="12.247081505351">
        <ele>432.4</ele>
        <time>2020-01-04T17:28:16Z</time>
      </trkpt>
      <trkpt lat="61.294988251249" lon="12.246989136813">
        <ele>431.4</ele>
        <time>2020-01-04T17:28:24Z</time>
      </trkpt>
      <trkpt lat="61.295322018507" lon="12.246885704167">
        <ele>432.4</ele>
        <time>2020-01-04T17:28:33Z</time>
      </trkpt>
      <trkpt lat="61.295784867025" lon="12.246744972066">
        <ele>432.6</ele>
        <time>2020-01-04T17:28:45Z</time>
      </trkpt>
      <trkpt lat="61.295830380742" lon="12.246731477207">
        <ele>432.6</ele>
        <time>2020-01-04T17:28:46Z</time>
      </trkpt>
      <trkpt lat="61.296106396709" lon="12.246630978226">
        <ele>431</ele>
        <time>2020-01-04T17:28:52Z</time>
      </trkpt>
      <trkpt lat="61.296288870672" lon="12.246584961595">
        <ele>429.8</ele>
        <time>2020-01-04T17:28:56Z</time>
      </trkpt>
      <trkpt lat="61.296751048638" lon="12.24646468133">
        <ele>429.4</ele>
        <time>2020-01-04T17:29:07Z</time>
      </trkpt>
      <trkpt lat="61.297164779222" lon="12.246390333877">
        <ele>428.8</ele>
        <time>2020-01-04T17:29:17Z</time>
      </trkpt>
      <trkpt lat="61.297256225751" lon="12.246363176521">
        <ele>428</ele>
        <time>2020-01-04T17:29:19Z</time>
      </trkpt>
      <trkpt lat="61.297301990925" lon="12.246343814332">
        <ele>427.6</ele>
        <time>2020-01-04T17:29:20Z</time>
      </trkpt>
      <trkpt lat="61.297430736909" lon="12.246307520705">
        <ele>426.4</ele>
        <time>2020-01-04T17:29:23Z</time>
      </trkpt>
      <trkpt lat="61.297886796088" lon="12.246094536626">
        <ele>425.8</ele>
        <time>2020-01-04T17:29:35Z</time>
      </trkpt>
      <trkpt lat="61.297922922077" lon="12.246078527197">
        <ele>425</ele>
        <time>2020-01-04T17:29:36Z</time>
      </trkpt>
      <trkpt lat="61.298379819446" lon="12.245921869486">
        <ele>425.6</ele>
        <time>2020-01-04T17:29:52Z</time>
      </trkpt>
      <trkpt lat="61.298596240104" lon="12.245830506776">
        <ele>426</ele>
        <time>2020-01-04T17:29:58Z</time>
      </trkpt>
      <trkpt lat="61.299046767229" lon="12.2456290059">
        <ele>425.8</ele>
        <time>2020-01-04T17:30:12Z</time>
      </trkpt>
      <trkpt lat="61.29925120177" lon="12.245570835514">
        <ele>426.4</ele>
        <time>2020-01-04T17:30:19Z</time>
      </trkpt>
      <trkpt lat="61.299409535861" lon="12.245512916585">
        <ele>426.4</ele>
        <time>2020-01-04T17:30:25Z</time>
      </trkpt>
      <trkpt lat="61.299478267441" lon="12.245471174723">
        <ele>427</ele>
        <time>2020-01-04T17:30:27Z</time>
      </trkpt>
      <trkpt lat="61.299510956851" lon="12.245466061764">
        <ele>427.2</ele>
        <time>2020-01-04T17:30:28Z</time>
      </trkpt>
      <trkpt lat="61.299740788549" lon="12.24537922528">
        <ele>426</ele>
        <time>2020-01-04T17:30:35Z</time>
      </trkpt>
      <trkpt lat="61.299915299707" lon="12.245031879344">
        <ele>425</ele>
        <time>2020-01-04T17:30:42Z</time>
      </trkpt>
      <trkpt lat="61.30003826218" lon="12.244849405381">
        <ele>423.8</ele>
        <time>2020-01-04T17:30:47Z</time>
      </trkpt>
      <trkpt lat="61.300303381677" lon="12.244566348618">
        <ele>422.8</ele>
        <time>2020-01-04T17:31:08Z</time>
      </trkpt>
      <trkpt lat="61.300717698994" lon="12.244165609979">
        <ele>424</ele>
        <time>2020-01-04T17:31:22Z</time>
      </trkpt>
      <trkpt lat="61.301005365802" lon="12.244170806757">
        <ele>423</ele>
        <time>2020-01-04T17:31:29Z</time>
      </trkpt>
      <trkpt lat="61.301223127564" lon="12.244144068496">
        <ele>422.8</ele>
        <time>2020-01-04T17:31:34Z</time>
      </trkpt>
      <trkpt lat="61.301317843034" lon="12.244046167904">
        <ele>421.4</ele>
        <time>2020-01-04T17:31:37Z</time>
      </trkpt>
      <trkpt lat="61.301572485156" lon="12.243480473473">
        <ele>422.4</ele>
        <time>2020-01-04T17:31:51Z</time>
      </trkpt>
      <trkpt lat="61.301848249666" lon="12.243345189607">
        <ele>423.6</ele>
        <time>2020-01-04T17:32:01Z</time>
      </trkpt>
      <trkpt lat="61.302304225026" lon="12.243119045945">
        <ele>423.6</ele>
        <time>2020-01-04T17:32:15Z</time>
      </trkpt>
      <trkpt lat="61.302379913583" lon="12.243046291053">
        <ele>423</ele>
        <time>2020-01-04T17:32:17Z</time>
      </trkpt>
      <trkpt lat="61.302834212563" lon="12.242714703089">
        <ele>422.6</ele>
        <time>2020-01-04T17:32:29Z</time>
      </trkpt>
      <trkpt lat="61.30290654836" lon="12.242657119436">
        <ele>422.6</ele>
        <time>2020-01-04T17:32:31Z</time>
      </trkpt>
      <trkpt lat="61.303301084393" lon="12.242477495319">
        <ele>422.4</ele>
        <time>2020-01-04T17:32:44Z</time>
      </trkpt>
      <trkpt lat="61.303363864824" lon="12.242838922847">
        <ele>422.2</ele>
        <time>2020-01-04T17:32:48Z</time>
      </trkpt>
      <trkpt lat="61.303361517892" lon="12.243118123936">
        <ele>421.2</ele>
        <time>2020-01-04T17:32:50Z</time>
      </trkpt>
      <trkpt lat="61.303333019432" lon="12.243249635947">
        <ele>419.8</ele>
        <time>2020-01-04T17:32:51Z</time>
      </trkpt>
      <trkpt lat="61.30328541024" lon="12.243361031398">
        <ele>418.2</ele>
        <time>2020-01-04T17:32:52Z</time>
      </trkpt>
      <trkpt lat="61.303223803275" lon="12.243444179846">
        <ele>417</ele>
        <time>2020-01-04T17:32:53Z</time>
      </trkpt>
      <trkpt lat="61.303154987876" lon="12.243489442106">
        <ele>416.4</ele>
        <time>2020-01-04T17:32:54Z</time>
      </trkpt>
      <trkpt lat="61.303029427014" lon="12.243511235046">
        <ele>416</ele>
        <time>2020-01-04T17:32:56Z</time>
      </trkpt>
      <trkpt lat="61.302813844546" lon="12.2435000033">
        <ele>417.6</ele>
        <time>2020-01-04T17:33:00Z</time>
      </trkpt>
      <trkpt lat="61.302723990578" lon="12.243537973307">
        <ele>417.8</ele>
        <time>2020-01-04T17:33:02Z</time>
      </trkpt>
      <trkpt lat="61.302690965892" lon="12.243560269161">
        <ele>418</ele>
        <time>2020-01-04T17:33:03Z</time>
      </trkpt>
      <trkpt lat="61.302658025025" lon="12.243578122608">
        <ele>418.4</ele>
        <time>2020-01-04T17:33:04Z</time>
      </trkpt>
      <trkpt lat="61.302548473592" lon="12.243648698206">
        <ele>419.2</ele>
        <time>2020-01-04T17:33:07Z</time>
      </trkpt>
      <trkpt lat="61.302082859047" lon="12.243816420025">
        <ele>419.8</ele>
        <time>2020-01-04T17:33:18Z</time>
      </trkpt>
      <trkpt lat="61.302024688661" lon="12.243810720333">
        <ele>420.4</ele>
        <time>2020-01-04T17:33:20Z</time>
      </trkpt>
      <trkpt lat="61.301631996646" lon="12.243820024242">
        <ele>421.6</ele>
        <time>2020-01-04T17:33:32Z</time>
      </trkpt>
      <trkpt lat="61.301506016689" lon="12.243840643716">
        <ele>421.4</ele>
        <time>2020-01-04T17:33:36Z</time>
      </trkpt>
      <trkpt lat="61.301461844076" lon="12.243760093657">
        <ele>421.2</ele>
        <time>2020-01-04T17:33:38Z</time>
      </trkpt>
      <trkpt lat="61.301461927895" lon="12.243636544451">
        <ele>421.2</ele>
        <time>2020-01-04T17:33:41Z</time>
      </trkpt>
      <trkpt lat="61.30172805322" lon="12.243411825712">
        <ele>422.6</ele>
        <time>2020-01-04T17:33:52Z</time>
      </trkpt>
      <trkpt lat="61.301920166368" lon="12.243347955634">
        <ele>424</ele>
        <time>2020-01-04T17:33:58Z</time>
      </trkpt>
      <trkpt lat="61.302258543671" lon="12.243179395625">
        <ele>423.8</ele>
        <time>2020-01-04T17:34:07Z</time>
      </trkpt>
      <trkpt lat="61.302482591858" lon="12.243081159757">
        <ele>424.2</ele>
        <time>2020-01-04T17:34:12Z</time>
      </trkpt>
      <trkpt lat="61.302653750256" lon="12.242952749049">
        <ele>423.6</ele>
        <time>2020-01-04T17:34:16Z</time>
      </trkpt>
      <trkpt lat="61.302766402992" lon="12.24284956786">
        <ele>422.8</ele>
        <time>2020-01-04T17:34:19Z</time>
      </trkpt>
      <trkpt lat="61.30292582673" lon="12.242699950945">
        <ele>422</ele>
        <time>2020-01-04T17:34:23Z</time>
      </trkpt>
      <trkpt lat="61.302955414837" lon="12.242687126638">
        <ele>421.8</ele>
        <time>2020-01-04T17:34:24Z</time>
      </trkpt>
      <trkpt lat="61.303378784606" lon="12.242294602261">
        <ele>422.6</ele>
        <time>2020-01-04T17:34:37Z</time>
      </trkpt>
      <trkpt lat="61.303490515333" lon="12.242223942844">
        <ele>422.4</ele>
        <time>2020-01-04T17:34:41Z</time>
      </trkpt>
    </trkseg>
  </trk>
</gpx>